<?xml version="1.0" encoding="UTF-8" standalone="no" ?>
<gpx xmlns="http://www.topografix.com/GPX/1/1" xmlns:xsi="http://www.w3.org/2001/XMLSchema-instance" xsi:schemaLocation="http://www.topografix.com/GPX/1/1 http://www.topografix.com/GPX/1/1/gpx.xsd" version="1.1" creator="VisuGPX - https://www.visugpx.com">
  <metadata>
    <name>Le Taillefer en boucle</name>
    <desc><![CDATA[Magnifique boucle par le Taillefer au départ du Poursoullet]]></desc>
  </metadata>
  <trk>
    <name><![CDATA[2019-08-24 07:14]]></name>
    <desc><![CDATA[<p>Heure de départ: 07:14 24 août 2019<br/>Heure d'arrivée: 13:27 24 août 2019<br/>Distance: 13,6 km (06:13)<br/>Temps déplacement: 04:53<br/>Vitesse moyenne: 2,19 km/h<br/>Vitesse moyenne mouv.: 2,79 km/h<br/>Vitesse Max.: 7,53 km/h<br/>Altitude minimale: 1646 m<br/>Altitude maximale: 2858 m<br/>Vitesse de montée: 448,3 m/h<br/>Vitesse de descente: -438,5 m/h<br/>Gain d'altitude: 1316 m<br/>Perte d'altitude: -1309 m<br/>Temps de montée: 02:56<br/>Temps de descente: 02:59<br/></p><hr align="center" width="480" style="height: 2px; width: 517px"/>]]></desc>
    <trkseg>
      <trkpt lat="45.05281" lon="5.89826">
        <ele>1655.71</ele>
        <time>2019-08-24T05:14:22.825Z</time>
      </trkpt>
      <trkpt lat="45.053" lon="5.8983">
        <ele>1652.24</ele>
        <time>2019-08-24T05:15:09.000Z</time>
      </trkpt>
      <trkpt lat="45.053" lon="5.89856">
        <ele>1652.54</ele>
        <time>2019-08-24T05:15:21.000Z</time>
      </trkpt>
      <trkpt lat="45.05305" lon="5.89881">
        <ele>1646.77</ele>
        <time>2019-08-24T05:15:38.000Z</time>
      </trkpt>
      <trkpt lat="45.05309" lon="5.89907">
        <ele>1652.46</ele>
        <time>2019-08-24T05:15:55.000Z</time>
      </trkpt>
      <trkpt lat="45.05304" lon="5.89933">
        <ele>1654.74</ele>
        <time>2019-08-24T05:16:23.000Z</time>
      </trkpt>
      <trkpt lat="45.05295" lon="5.89956">
        <ele>1652.97</ele>
        <time>2019-08-24T05:16:40.000Z</time>
      </trkpt>
      <trkpt lat="45.05282" lon="5.89978">
        <ele>1655.04</ele>
        <time>2019-08-24T05:16:58.000Z</time>
      </trkpt>
      <trkpt lat="45.05271" lon="5.89998">
        <ele>1653.45</ele>
        <time>2019-08-24T05:17:10.000Z</time>
      </trkpt>
      <trkpt lat="45.05253" lon="5.90007">
        <ele>1655.6</ele>
        <time>2019-08-24T05:17:21.000Z</time>
      </trkpt>
      <trkpt lat="45.05244" lon="5.9003">
        <ele>1650.52</ele>
        <time>2019-08-24T05:17:36.000Z</time>
      </trkpt>
      <trkpt lat="45.05231" lon="5.90047">
        <ele>1652.67</ele>
        <time>2019-08-24T05:17:54.000Z</time>
      </trkpt>
      <trkpt lat="45.05215" lon="5.90063">
        <ele>1648.06</ele>
        <time>2019-08-24T05:18:11.000Z</time>
      </trkpt>
      <trkpt lat="45.05201" lon="5.90079">
        <ele>1646.84</ele>
        <time>2019-08-24T05:18:25.000Z</time>
      </trkpt>
      <trkpt lat="45.0519" lon="5.90098">
        <ele>1646.74</ele>
        <time>2019-08-24T05:18:44.000Z</time>
      </trkpt>
      <trkpt lat="45.05184" lon="5.90124">
        <ele>1648.74</ele>
        <time>2019-08-24T05:19:06.000Z</time>
      </trkpt>
      <trkpt lat="45.05196" lon="5.90143">
        <ele>1649.84</ele>
        <time>2019-08-24T05:19:24.000Z</time>
      </trkpt>
      <trkpt lat="45.05183" lon="5.90161">
        <ele>1654.33</ele>
        <time>2019-08-24T05:19:47.000Z</time>
      </trkpt>
      <trkpt lat="45.05173" lon="5.90182">
        <ele>1660.12</ele>
        <time>2019-08-24T05:20:07.000Z</time>
      </trkpt>
      <trkpt lat="45.05159" lon="5.902">
        <ele>1661.9</ele>
        <time>2019-08-24T05:20:21.000Z</time>
      </trkpt>
      <trkpt lat="45.05155" lon="5.90226">
        <ele>1661.65</ele>
        <time>2019-08-24T05:20:37.000Z</time>
      </trkpt>
      <trkpt lat="45.05156" lon="5.90252">
        <ele>1657.46</ele>
        <time>2019-08-24T05:20:57.000Z</time>
      </trkpt>
      <trkpt lat="45.05156" lon="5.90278">
        <ele>1657.41</ele>
        <time>2019-08-24T05:21:15.000Z</time>
      </trkpt>
      <trkpt lat="45.05165" lon="5.903">
        <ele>1659.88</ele>
        <time>2019-08-24T05:21:26.000Z</time>
      </trkpt>
      <trkpt lat="45.05165" lon="5.90328">
        <ele>1664.44</ele>
        <time>2019-08-24T05:21:41.000Z</time>
      </trkpt>
      <trkpt lat="45.05173" lon="5.90352">
        <ele>1664.46</ele>
        <time>2019-08-24T05:21:58.000Z</time>
      </trkpt>
      <trkpt lat="45.05169" lon="5.90377">
        <ele>1666.49</ele>
        <time>2019-08-24T05:22:09.000Z</time>
      </trkpt>
      <trkpt lat="45.05162" lon="5.90402">
        <ele>1669.05</ele>
        <time>2019-08-24T05:22:26.000Z</time>
      </trkpt>
      <trkpt lat="45.05156" lon="5.90429">
        <ele>1669.35</ele>
        <time>2019-08-24T05:22:45.000Z</time>
      </trkpt>
      <trkpt lat="45.05148" lon="5.90453">
        <ele>1672.49</ele>
        <time>2019-08-24T05:22:59.000Z</time>
      </trkpt>
      <trkpt lat="45.05141" lon="5.90477">
        <ele>1672.75</ele>
        <time>2019-08-24T05:23:14.000Z</time>
      </trkpt>
      <trkpt lat="45.05136" lon="5.90503">
        <ele>1672.63</ele>
        <time>2019-08-24T05:23:27.000Z</time>
      </trkpt>
      <trkpt lat="45.05136" lon="5.9053">
        <ele>1665.86</ele>
        <time>2019-08-24T05:23:43.000Z</time>
      </trkpt>
      <trkpt lat="45.05134" lon="5.90556">
        <ele>1676.36</ele>
        <time>2019-08-24T05:24:52.000Z</time>
      </trkpt>
      <trkpt lat="45.05124" lon="5.90577">
        <ele>1677.78</ele>
        <time>2019-08-24T05:25:03.000Z</time>
      </trkpt>
      <trkpt lat="45.05119" lon="5.90603">
        <ele>1685.47</ele>
        <time>2019-08-24T05:25:19.000Z</time>
      </trkpt>
      <trkpt lat="45.05116" lon="5.90629">
        <ele>1687.76</ele>
        <time>2019-08-24T05:25:36.000Z</time>
      </trkpt>
      <trkpt lat="45.05122" lon="5.90654">
        <ele>1693.13</ele>
        <time>2019-08-24T05:25:51.000Z</time>
      </trkpt>
      <trkpt lat="45.05124" lon="5.90679">
        <ele>1689.96</ele>
        <time>2019-08-24T05:26:06.000Z</time>
      </trkpt>
      <trkpt lat="45.05129" lon="5.90704">
        <ele>1693.02</ele>
        <time>2019-08-24T05:26:20.000Z</time>
      </trkpt>
      <trkpt lat="45.05123" lon="5.90729">
        <ele>1696.02</ele>
        <time>2019-08-24T05:26:44.000Z</time>
      </trkpt>
      <trkpt lat="45.05116" lon="5.90753">
        <ele>1698.44</ele>
        <time>2019-08-24T05:26:59.000Z</time>
      </trkpt>
      <trkpt lat="45.05111" lon="5.90778">
        <ele>1702.02</ele>
        <time>2019-08-24T05:27:16.000Z</time>
      </trkpt>
      <trkpt lat="45.05105" lon="5.90802">
        <ele>1702.5</ele>
        <time>2019-08-24T05:27:42.000Z</time>
      </trkpt>
      <trkpt lat="45.05095" lon="5.90825">
        <ele>1707.59</ele>
        <time>2019-08-24T05:28:04.000Z</time>
      </trkpt>
      <trkpt lat="45.05096" lon="5.90851">
        <ele>1712.01</ele>
        <time>2019-08-24T05:28:27.000Z</time>
      </trkpt>
      <trkpt lat="45.05095" lon="5.90877">
        <ele>1707.14</ele>
        <time>2019-08-24T05:28:49.000Z</time>
      </trkpt>
      <trkpt lat="45.05089" lon="5.90902">
        <ele>1714.32</ele>
        <time>2019-08-24T05:29:05.000Z</time>
      </trkpt>
      <trkpt lat="45.05079" lon="5.90925">
        <ele>1716.2</ele>
        <time>2019-08-24T05:29:32.000Z</time>
      </trkpt>
      <trkpt lat="45.05074" lon="5.9095">
        <ele>1718.62</ele>
        <time>2019-08-24T05:29:56.000Z</time>
      </trkpt>
      <trkpt lat="45.05072" lon="5.90976">
        <ele>1721.05</ele>
        <time>2019-08-24T05:30:18.000Z</time>
      </trkpt>
      <trkpt lat="45.05064" lon="5.90999">
        <ele>1722.82</ele>
        <time>2019-08-24T05:30:36.000Z</time>
      </trkpt>
      <trkpt lat="45.05063" lon="5.91025">
        <ele>1726.02</ele>
        <time>2019-08-24T05:30:57.000Z</time>
      </trkpt>
      <trkpt lat="45.05059" lon="5.9105">
        <ele>1728.37</ele>
        <time>2019-08-24T05:31:19.000Z</time>
      </trkpt>
      <trkpt lat="45.05052" lon="5.91076">
        <ele>1728.01</ele>
        <time>2019-08-24T05:31:37.000Z</time>
      </trkpt>
      <trkpt lat="45.05042" lon="5.91098">
        <ele>1734.81</ele>
        <time>2019-08-24T05:32:05.000Z</time>
      </trkpt>
      <trkpt lat="45.05037" lon="5.91123">
        <ele>1735.56</ele>
        <time>2019-08-24T05:32:33.000Z</time>
      </trkpt>
      <trkpt lat="45.05044" lon="5.91147">
        <ele>1739.03</ele>
        <time>2019-08-24T05:33:02.000Z</time>
      </trkpt>
      <trkpt lat="45.05043" lon="5.91173">
        <ele>1739.71</ele>
        <time>2019-08-24T05:33:31.000Z</time>
      </trkpt>
      <trkpt lat="45.05054" lon="5.91193">
        <ele>1743.14</ele>
        <time>2019-08-24T05:33:59.000Z</time>
      </trkpt>
      <trkpt lat="45.05063" lon="5.91217">
        <ele>1753.73</ele>
        <time>2019-08-24T05:34:41.000Z</time>
      </trkpt>
      <trkpt lat="45.0505" lon="5.91238">
        <ele>1758.98</ele>
        <time>2019-08-24T05:34:58.000Z</time>
      </trkpt>
      <trkpt lat="45.05062" lon="5.91257">
        <ele>1765.1</ele>
        <time>2019-08-24T05:35:29.000Z</time>
      </trkpt>
      <trkpt lat="45.05064" lon="5.91283">
        <ele>1765.97</ele>
        <time>2019-08-24T05:36:16.000Z</time>
      </trkpt>
      <trkpt lat="45.05064" lon="5.91309">
        <ele>1771.69</ele>
        <time>2019-08-24T05:36:43.000Z</time>
      </trkpt>
      <trkpt lat="45.05074" lon="5.91331">
        <ele>1781.64</ele>
        <time>2019-08-24T05:37:16.000Z</time>
      </trkpt>
      <trkpt lat="45.05087" lon="5.91348">
        <ele>1779.69</ele>
        <time>2019-08-24T05:37:52.000Z</time>
      </trkpt>
      <trkpt lat="45.05103" lon="5.91362">
        <ele>1782.13</ele>
        <time>2019-08-24T05:38:23.000Z</time>
      </trkpt>
      <trkpt lat="45.05119" lon="5.91374">
        <ele>1778.83</ele>
        <time>2019-08-24T05:38:48.000Z</time>
      </trkpt>
      <trkpt lat="45.05133" lon="5.9139">
        <ele>1780.74</ele>
        <time>2019-08-24T05:39:13.000Z</time>
      </trkpt>
      <trkpt lat="45.05149" lon="5.91405">
        <ele>1785.58</ele>
        <time>2019-08-24T05:39:44.000Z</time>
      </trkpt>
      <trkpt lat="45.05156" lon="5.91429">
        <ele>1788.86</ele>
        <time>2019-08-24T05:40:11.000Z</time>
      </trkpt>
      <trkpt lat="45.05159" lon="5.91454">
        <ele>1790.11</ele>
        <time>2019-08-24T05:40:32.000Z</time>
      </trkpt>
      <trkpt lat="45.05161" lon="5.91481">
        <ele>1798.45</ele>
        <time>2019-08-24T05:40:55.000Z</time>
      </trkpt>
      <trkpt lat="45.0516" lon="5.91507">
        <ele>1800.18</ele>
        <time>2019-08-24T05:41:19.000Z</time>
      </trkpt>
      <trkpt lat="45.05168" lon="5.91531">
        <ele>1808.61</ele>
        <time>2019-08-24T05:41:50.000Z</time>
      </trkpt>
      <trkpt lat="45.05177" lon="5.91554">
        <ele>1811.2</ele>
        <time>2019-08-24T05:42:21.000Z</time>
      </trkpt>
      <trkpt lat="45.05177" lon="5.9158">
        <ele>1818.71</ele>
        <time>2019-08-24T05:42:53.000Z</time>
      </trkpt>
      <trkpt lat="45.05185" lon="5.91604">
        <ele>1825.36</ele>
        <time>2019-08-24T05:43:23.000Z</time>
      </trkpt>
      <trkpt lat="45.05183" lon="5.91629">
        <ele>1827.76</ele>
        <time>2019-08-24T05:43:52.000Z</time>
      </trkpt>
      <trkpt lat="45.05182" lon="5.91655">
        <ele>1838.75</ele>
        <time>2019-08-24T05:44:23.000Z</time>
      </trkpt>
      <trkpt lat="45.05182" lon="5.91681">
        <ele>1842.46</ele>
        <time>2019-08-24T05:44:51.000Z</time>
      </trkpt>
      <trkpt lat="45.0518" lon="5.91707">
        <ele>1849.35</ele>
        <time>2019-08-24T05:45:23.000Z</time>
      </trkpt>
      <trkpt lat="45.05194" lon="5.91722">
        <ele>1851.06</ele>
        <time>2019-08-24T05:46:19.000Z</time>
      </trkpt>
      <trkpt lat="45.05207" lon="5.91742">
        <ele>1856.95</ele>
        <time>2019-08-24T05:46:52.000Z</time>
      </trkpt>
      <trkpt lat="45.0519" lon="5.91751">
        <ele>1865.36</ele>
        <time>2019-08-24T05:47:18.000Z</time>
      </trkpt>
      <trkpt lat="45.05204" lon="5.91767">
        <ele>1867.62</ele>
        <time>2019-08-24T05:47:43.000Z</time>
      </trkpt>
      <trkpt lat="45.05199" lon="5.91792">
        <ele>1877.53</ele>
        <time>2019-08-24T05:48:20.000Z</time>
      </trkpt>
      <trkpt lat="45.05196" lon="5.91817">
        <ele>1880.66</ele>
        <time>2019-08-24T05:49:09.000Z</time>
      </trkpt>
      <trkpt lat="45.05195" lon="5.91844">
        <ele>1888.95</ele>
        <time>2019-08-24T05:50:02.000Z</time>
      </trkpt>
      <trkpt lat="45.05202" lon="5.91869">
        <ele>1892.27</ele>
        <time>2019-08-24T05:50:32.000Z</time>
      </trkpt>
      <trkpt lat="45.05201" lon="5.91894">
        <ele>1899.56</ele>
        <time>2019-08-24T05:51:08.000Z</time>
      </trkpt>
      <trkpt lat="45.0521" lon="5.91917">
        <ele>1904.47</ele>
        <time>2019-08-24T05:51:42.000Z</time>
      </trkpt>
      <trkpt lat="45.05217" lon="5.91942">
        <ele>1913.41</ele>
        <time>2019-08-24T05:52:34.000Z</time>
      </trkpt>
      <trkpt lat="45.05229" lon="5.91961">
        <ele>1925.57</ele>
        <time>2019-08-24T05:53:24.000Z</time>
      </trkpt>
      <trkpt lat="45.05242" lon="5.91979">
        <ele>1930.53</ele>
        <time>2019-08-24T05:54:19.000Z</time>
      </trkpt>
      <trkpt lat="45.05246" lon="5.92004">
        <ele>1943.83</ele>
        <time>2019-08-24T05:55:20.000Z</time>
      </trkpt>
      <trkpt lat="45.05247" lon="5.9203">
        <ele>1944.77</ele>
        <time>2019-08-24T05:56:03.000Z</time>
      </trkpt>
      <trkpt lat="45.05262" lon="5.92043">
        <ele>1948.74</ele>
        <time>2019-08-24T05:57:33.000Z</time>
      </trkpt>
      <trkpt lat="45.05274" lon="5.92063">
        <ele>1954.71</ele>
        <time>2019-08-24T05:58:38.000Z</time>
      </trkpt>
      <trkpt lat="45.0529" lon="5.92074">
        <ele>1963.71</ele>
        <time>2019-08-24T05:59:09.000Z</time>
      </trkpt>
      <trkpt lat="45.05302" lon="5.92094">
        <ele>1965.64</ele>
        <time>2019-08-24T05:59:44.000Z</time>
      </trkpt>
      <trkpt lat="45.05314" lon="5.92114">
        <ele>1967.54</ele>
        <time>2019-08-24T06:00:11.000Z</time>
      </trkpt>
      <trkpt lat="45.05326" lon="5.92134">
        <ele>1975.5</ele>
        <time>2019-08-24T06:00:43.000Z</time>
      </trkpt>
      <trkpt lat="45.05341" lon="5.9215">
        <ele>1984.86</ele>
        <time>2019-08-24T06:01:16.000Z</time>
      </trkpt>
      <trkpt lat="45.05352" lon="5.92169">
        <ele>1994.92</ele>
        <time>2019-08-24T06:02:02.000Z</time>
      </trkpt>
      <trkpt lat="45.05338" lon="5.92184">
        <ele>1990.68</ele>
        <time>2019-08-24T06:03:19.000Z</time>
      </trkpt>
      <trkpt lat="45.05319" lon="5.92184">
        <ele>1997.74</ele>
        <time>2019-08-24T06:04:05.000Z</time>
      </trkpt>
      <trkpt lat="45.05301" lon="5.92189">
        <ele>2012.62</ele>
        <time>2019-08-24T06:04:47.000Z</time>
      </trkpt>
      <trkpt lat="45.05284" lon="5.92194">
        <ele>2020.47</ele>
        <time>2019-08-24T06:05:18.000Z</time>
      </trkpt>
      <trkpt lat="45.05266" lon="5.92201">
        <ele>2023.63</ele>
        <time>2019-08-24T06:05:45.000Z</time>
      </trkpt>
      <trkpt lat="45.05248" lon="5.92198">
        <ele>2026.87</ele>
        <time>2019-08-24T06:06:19.000Z</time>
      </trkpt>
      <trkpt lat="45.0523" lon="5.92203">
        <ele>2030.8</ele>
        <time>2019-08-24T06:06:44.000Z</time>
      </trkpt>
      <trkpt lat="45.05213" lon="5.92212">
        <ele>2034.6</ele>
        <time>2019-08-24T06:07:12.000Z</time>
      </trkpt>
      <trkpt lat="45.05195" lon="5.92217">
        <ele>2035.91</ele>
        <time>2019-08-24T06:07:36.000Z</time>
      </trkpt>
      <trkpt lat="45.05192" lon="5.92242">
        <ele>2045.73</ele>
        <time>2019-08-24T06:08:28.000Z</time>
      </trkpt>
      <trkpt lat="45.05191" lon="5.92268">
        <ele>2045.64</ele>
        <time>2019-08-24T06:09:09.000Z</time>
      </trkpt>
      <trkpt lat="45.05194" lon="5.92293">
        <ele>2051.05</ele>
        <time>2019-08-24T06:09:40.000Z</time>
      </trkpt>
      <trkpt lat="45.05188" lon="5.92318">
        <ele>2058.53</ele>
        <time>2019-08-24T06:10:25.000Z</time>
      </trkpt>
      <trkpt lat="45.05178" lon="5.92341">
        <ele>2067.1</ele>
        <time>2019-08-24T06:10:49.000Z</time>
      </trkpt>
      <trkpt lat="45.05168" lon="5.92362">
        <ele>2083.43</ele>
        <time>2019-08-24T06:14:07.000Z</time>
      </trkpt>
      <trkpt lat="45.05149" lon="5.92368">
        <ele>2087.83</ele>
        <time>2019-08-24T06:14:39.000Z</time>
      </trkpt>
      <trkpt lat="45.05137" lon="5.92387">
        <ele>2090.71</ele>
        <time>2019-08-24T06:15:12.000Z</time>
      </trkpt>
      <trkpt lat="45.05123" lon="5.92405">
        <ele>2101.41</ele>
        <time>2019-08-24T06:15:54.000Z</time>
      </trkpt>
      <trkpt lat="45.05114" lon="5.92427">
        <ele>2102.63</ele>
        <time>2019-08-24T06:16:51.000Z</time>
      </trkpt>
      <trkpt lat="45.05101" lon="5.92446">
        <ele>2118.86</ele>
        <time>2019-08-24T06:17:27.000Z</time>
      </trkpt>
      <trkpt lat="45.05085" lon="5.92457">
        <ele>2116.65</ele>
        <time>2019-08-24T06:17:53.000Z</time>
      </trkpt>
      <trkpt lat="45.05083" lon="5.92483">
        <ele>2121.83</ele>
        <time>2019-08-24T06:18:44.000Z</time>
      </trkpt>
      <trkpt lat="45.05072" lon="5.92503">
        <ele>2126.79</ele>
        <time>2019-08-24T06:19:16.000Z</time>
      </trkpt>
      <trkpt lat="45.05071" lon="5.92529">
        <ele>2129.78</ele>
        <time>2019-08-24T06:19:44.000Z</time>
      </trkpt>
      <trkpt lat="45.05066" lon="5.92554">
        <ele>2140.97</ele>
        <time>2019-08-24T06:21:21.000Z</time>
      </trkpt>
      <trkpt lat="45.05056" lon="5.92576">
        <ele>2141.77</ele>
        <time>2019-08-24T06:21:44.000Z</time>
      </trkpt>
      <trkpt lat="45.05058" lon="5.92603">
        <ele>2150.32</ele>
        <time>2019-08-24T06:22:06.000Z</time>
      </trkpt>
      <trkpt lat="45.05055" lon="5.92628">
        <ele>2159.93</ele>
        <time>2019-08-24T06:22:55.000Z</time>
      </trkpt>
      <trkpt lat="45.05054" lon="5.92654">
        <ele>2162.96</ele>
        <time>2019-08-24T06:23:32.000Z</time>
      </trkpt>
      <trkpt lat="45.05037" lon="5.92646">
        <ele>2175.2</ele>
        <time>2019-08-24T06:25:07.000Z</time>
      </trkpt>
      <trkpt lat="45.05019" lon="5.92642">
        <ele>2181.85</ele>
        <time>2019-08-24T06:25:39.000Z</time>
      </trkpt>
      <trkpt lat="45.05" lon="5.92644">
        <ele>2187.83</ele>
        <time>2019-08-24T06:26:16.000Z</time>
      </trkpt>
      <trkpt lat="45.04985" lon="5.92659">
        <ele>2190.28</ele>
        <time>2019-08-24T06:26:47.000Z</time>
      </trkpt>
      <trkpt lat="45.04968" lon="5.92653">
        <ele>2205.96</ele>
        <time>2019-08-24T06:27:45.000Z</time>
      </trkpt>
      <trkpt lat="45.0495" lon="5.92644">
        <ele>2221.16</ele>
        <time>2019-08-24T06:29:10.000Z</time>
      </trkpt>
      <trkpt lat="45.04934" lon="5.92631">
        <ele>2229.74</ele>
        <time>2019-08-24T06:30:15.000Z</time>
      </trkpt>
      <trkpt lat="45.04914" lon="5.92626">
        <ele>2239.05</ele>
        <time>2019-08-24T06:30:52.000Z</time>
      </trkpt>
      <trkpt lat="45.04896" lon="5.92629">
        <ele>2240.77</ele>
        <time>2019-08-24T06:33:03.000Z</time>
      </trkpt>
      <trkpt lat="45.04877" lon="5.92629">
        <ele>2248.35</ele>
        <time>2019-08-24T06:33:48.000Z</time>
      </trkpt>
      <trkpt lat="45.04859" lon="5.92631">
        <ele>2258.37</ele>
        <time>2019-08-24T06:34:23.000Z</time>
      </trkpt>
      <trkpt lat="45.04841" lon="5.92639">
        <ele>2261.32</ele>
        <time>2019-08-24T06:34:47.000Z</time>
      </trkpt>
      <trkpt lat="45.04824" lon="5.92649">
        <ele>2266.87</ele>
        <time>2019-08-24T06:35:22.000Z</time>
      </trkpt>
      <trkpt lat="45.04807" lon="5.92659">
        <ele>2267.08</ele>
        <time>2019-08-24T06:36:03.000Z</time>
      </trkpt>
      <trkpt lat="45.04792" lon="5.92675">
        <ele>2278.74</ele>
        <time>2019-08-24T06:37:36.000Z</time>
      </trkpt>
      <trkpt lat="45.04776" lon="5.92688">
        <ele>2285.46</ele>
        <time>2019-08-24T06:38:16.000Z</time>
      </trkpt>
      <trkpt lat="45.0476" lon="5.92675">
        <ele>2301.67</ele>
        <time>2019-08-24T06:39:58.000Z</time>
      </trkpt>
      <trkpt lat="45.04746" lon="5.92658">
        <ele>2314.24</ele>
        <time>2019-08-24T06:42:37.000Z</time>
      </trkpt>
      <trkpt lat="45.04734" lon="5.92639">
        <ele>2323.76</ele>
        <time>2019-08-24T06:43:58.000Z</time>
      </trkpt>
      <trkpt lat="45.04724" lon="5.92661">
        <ele>2336.12</ele>
        <time>2019-08-24T06:46:36.000Z</time>
      </trkpt>
      <trkpt lat="45.04707" lon="5.92671">
        <ele>2345.94</ele>
        <time>2019-08-24T06:47:11.000Z</time>
      </trkpt>
      <trkpt lat="45.04689" lon="5.92677">
        <ele>2350.43</ele>
        <time>2019-08-24T06:47:53.000Z</time>
      </trkpt>
      <trkpt lat="45.0467" lon="5.92675">
        <ele>2355.08</ele>
        <time>2019-08-24T06:48:22.000Z</time>
      </trkpt>
      <trkpt lat="45.04653" lon="5.92683">
        <ele>2359.55</ele>
        <time>2019-08-24T06:48:53.000Z</time>
      </trkpt>
      <trkpt lat="45.04634" lon="5.92681">
        <ele>2371.89</ele>
        <time>2019-08-24T06:50:49.000Z</time>
      </trkpt>
      <trkpt lat="45.04617" lon="5.92671">
        <ele>2375.88</ele>
        <time>2019-08-24T06:51:28.000Z</time>
      </trkpt>
      <trkpt lat="45.04599" lon="5.92665">
        <ele>2384.77</ele>
        <time>2019-08-24T06:52:17.000Z</time>
      </trkpt>
      <trkpt lat="45.04583" lon="5.92652">
        <ele>2387.06</ele>
        <time>2019-08-24T06:52:52.000Z</time>
      </trkpt>
      <trkpt lat="45.04565" lon="5.9264">
        <ele>2400.75</ele>
        <time>2019-08-24T06:53:33.000Z</time>
      </trkpt>
      <trkpt lat="45.04553" lon="5.92619">
        <ele>2407.3</ele>
        <time>2019-08-24T06:54:21.000Z</time>
      </trkpt>
      <trkpt lat="45.04551" lon="5.92593">
        <ele>2411.65</ele>
        <time>2019-08-24T06:54:56.000Z</time>
      </trkpt>
      <trkpt lat="45.04538" lon="5.92574">
        <ele>2420.54</ele>
        <time>2019-08-24T06:55:47.000Z</time>
      </trkpt>
      <trkpt lat="45.04531" lon="5.9255">
        <ele>2432.08</ele>
        <time>2019-08-24T06:56:26.000Z</time>
      </trkpt>
      <trkpt lat="45.04518" lon="5.92532">
        <ele>2447.7</ele>
        <time>2019-08-24T06:57:17.000Z</time>
      </trkpt>
      <trkpt lat="45.04506" lon="5.92512">
        <ele>2443.51</ele>
        <time>2019-08-24T06:58:17.000Z</time>
      </trkpt>
      <trkpt lat="45.04495" lon="5.92491">
        <ele>2461.76</ele>
        <time>2019-08-24T06:59:30.000Z</time>
      </trkpt>
      <trkpt lat="45.04484" lon="5.9247">
        <ele>2459.68</ele>
        <time>2019-08-24T07:00:51.000Z</time>
      </trkpt>
      <trkpt lat="45.04466" lon="5.92463">
        <ele>2473.64</ele>
        <time>2019-08-24T07:01:30.000Z</time>
      </trkpt>
      <trkpt lat="45.04449" lon="5.92452">
        <ele>2473.19</ele>
        <time>2019-08-24T07:02:20.000Z</time>
      </trkpt>
      <trkpt lat="45.04444" lon="5.92427">
        <ele>2490.9</ele>
        <time>2019-08-24T07:03:17.000Z</time>
      </trkpt>
      <trkpt lat="45.04426" lon="5.9242">
        <ele>2487.39</ele>
        <time>2019-08-24T07:03:49.000Z</time>
      </trkpt>
      <trkpt lat="45.04408" lon="5.92421">
        <ele>2489.69</ele>
        <time>2019-08-24T07:04:22.000Z</time>
      </trkpt>
      <trkpt lat="45.0439" lon="5.92428">
        <ele>2500.63</ele>
        <time>2019-08-24T07:04:49.000Z</time>
      </trkpt>
      <trkpt lat="45.04374" lon="5.92414">
        <ele>2503.62</ele>
        <time>2019-08-24T07:05:23.000Z</time>
      </trkpt>
      <trkpt lat="45.04368" lon="5.9239">
        <ele>2526.5</ele>
        <time>2019-08-24T07:07:43.000Z</time>
      </trkpt>
      <trkpt lat="45.0436" lon="5.92366">
        <ele>2544.49</ele>
        <time>2019-08-24T07:10:25.000Z</time>
      </trkpt>
      <trkpt lat="45.04367" lon="5.92342">
        <ele>2552.53</ele>
        <time>2019-08-24T07:11:21.000Z</time>
      </trkpt>
      <trkpt lat="45.04359" lon="5.92319">
        <ele>2557.07</ele>
        <time>2019-08-24T07:12:26.000Z</time>
      </trkpt>
      <trkpt lat="45.04361" lon="5.92293">
        <ele>2577.04</ele>
        <time>2019-08-24T07:16:05.000Z</time>
      </trkpt>
      <trkpt lat="45.04343" lon="5.92284">
        <ele>2585.84</ele>
        <time>2019-08-24T07:17:02.000Z</time>
      </trkpt>
      <trkpt lat="45.04331" lon="5.92266">
        <ele>2598.32</ele>
        <time>2019-08-24T07:18:30.000Z</time>
      </trkpt>
      <trkpt lat="45.04342" lon="5.92245">
        <ele>2606.82</ele>
        <time>2019-08-24T07:19:17.000Z</time>
      </trkpt>
      <trkpt lat="45.04335" lon="5.92221">
        <ele>2608.74</ele>
        <time>2019-08-24T07:20:03.000Z</time>
      </trkpt>
      <trkpt lat="45.04326" lon="5.92199">
        <ele>2619.74</ele>
        <time>2019-08-24T07:21:34.000Z</time>
      </trkpt>
      <trkpt lat="45.04311" lon="5.92183">
        <ele>2638.64</ele>
        <time>2019-08-24T07:22:47.000Z</time>
      </trkpt>
      <trkpt lat="45.04293" lon="5.92179">
        <ele>2645.64</ele>
        <time>2019-08-24T07:23:26.000Z</time>
      </trkpt>
      <trkpt lat="45.04275" lon="5.92182">
        <ele>2658.61</ele>
        <time>2019-08-24T07:24:27.000Z</time>
      </trkpt>
      <trkpt lat="45.04258" lon="5.92172">
        <ele>2667.62</ele>
        <time>2019-08-24T07:25:13.000Z</time>
      </trkpt>
      <trkpt lat="45.04247" lon="5.92152">
        <ele>2672.81</ele>
        <time>2019-08-24T07:26:16.000Z</time>
      </trkpt>
      <trkpt lat="45.04229" lon="5.92159">
        <ele>2681.62</ele>
        <time>2019-08-24T07:26:44.000Z</time>
      </trkpt>
      <trkpt lat="45.04212" lon="5.92171">
        <ele>2690.42</ele>
        <time>2019-08-24T07:27:22.000Z</time>
      </trkpt>
      <trkpt lat="45.04195" lon="5.92165">
        <ele>2697.86</ele>
        <time>2019-08-24T07:28:23.000Z</time>
      </trkpt>
      <trkpt lat="45.0418" lon="5.92152">
        <ele>2703.76</ele>
        <time>2019-08-24T07:28:53.000Z</time>
      </trkpt>
      <trkpt lat="45.04162" lon="5.92148">
        <ele>2705.74</ele>
        <time>2019-08-24T07:29:53.000Z</time>
      </trkpt>
      <trkpt lat="45.04143" lon="5.92145">
        <ele>2708.07</ele>
        <time>2019-08-24T07:30:15.000Z</time>
      </trkpt>
      <trkpt lat="45.04125" lon="5.9215">
        <ele>2711.74</ele>
        <time>2019-08-24T07:30:52.000Z</time>
      </trkpt>
      <trkpt lat="45.0411" lon="5.92134">
        <ele>2719.79</ele>
        <time>2019-08-24T07:31:20.000Z</time>
      </trkpt>
      <trkpt lat="45.04092" lon="5.9213">
        <ele>2718.84</ele>
        <time>2019-08-24T07:31:46.000Z</time>
      </trkpt>
      <trkpt lat="45.04079" lon="5.92113">
        <ele>2724.71</ele>
        <time>2019-08-24T07:32:27.000Z</time>
      </trkpt>
      <trkpt lat="45.04061" lon="5.92104">
        <ele>2730.74</ele>
        <time>2019-08-24T07:32:48.000Z</time>
      </trkpt>
      <trkpt lat="45.04045" lon="5.92093">
        <ele>2738.44</ele>
        <time>2019-08-24T07:33:20.000Z</time>
      </trkpt>
      <trkpt lat="45.04032" lon="5.92075">
        <ele>2740.84</ele>
        <time>2019-08-24T07:33:50.000Z</time>
      </trkpt>
      <trkpt lat="45.04023" lon="5.92052">
        <ele>2736.64</ele>
        <time>2019-08-24T07:34:20.000Z</time>
      </trkpt>
      <trkpt lat="45.04007" lon="5.92039">
        <ele>2739.38</ele>
        <time>2019-08-24T07:34:38.000Z</time>
      </trkpt>
      <trkpt lat="45.03988" lon="5.92041">
        <ele>2739.3</ele>
        <time>2019-08-24T07:35:18.000Z</time>
      </trkpt>
      <trkpt lat="45.0397" lon="5.92044">
        <ele>2740.44</ele>
        <time>2019-08-24T07:35:41.000Z</time>
      </trkpt>
      <trkpt lat="45.03956" lon="5.92059">
        <ele>2740.74</ele>
        <time>2019-08-24T07:37:12.000Z</time>
      </trkpt>
      <trkpt lat="45.03951" lon="5.92085">
        <ele>2742.82</ele>
        <time>2019-08-24T07:38:18.000Z</time>
      </trkpt>
      <trkpt lat="45.03933" lon="5.92091">
        <ele>2745.47</ele>
        <time>2019-08-24T07:38:35.000Z</time>
      </trkpt>
      <trkpt lat="45.03919" lon="5.92107">
        <ele>2747.05</ele>
        <time>2019-08-24T07:38:54.000Z</time>
      </trkpt>
      <trkpt lat="45.03901" lon="5.92111">
        <ele>2751.43</ele>
        <time>2019-08-24T07:39:20.000Z</time>
      </trkpt>
      <trkpt lat="45.03883" lon="5.92118">
        <ele>2754.48</ele>
        <time>2019-08-24T07:39:51.000Z</time>
      </trkpt>
      <trkpt lat="45.03867" lon="5.92127">
        <ele>2762.58</ele>
        <time>2019-08-24T07:40:29.000Z</time>
      </trkpt>
      <trkpt lat="45.0385" lon="5.92136">
        <ele>2775.74</ele>
        <time>2019-08-24T07:41:15.000Z</time>
      </trkpt>
      <trkpt lat="45.03834" lon="5.92151">
        <ele>2780.46</ele>
        <time>2019-08-24T07:42:03.000Z</time>
      </trkpt>
      <trkpt lat="45.03816" lon="5.92144">
        <ele>2787.68</ele>
        <time>2019-08-24T07:42:31.000Z</time>
      </trkpt>
      <trkpt lat="45.03808" lon="5.92167">
        <ele>2799.16</ele>
        <time>2019-08-24T07:43:23.000Z</time>
      </trkpt>
      <trkpt lat="45.03791" lon="5.92177">
        <ele>2807.44</ele>
        <time>2019-08-24T07:44:32.000Z</time>
      </trkpt>
      <trkpt lat="45.03806" lon="5.9219">
        <ele>2824.72</ele>
        <time>2019-08-24T07:45:42.000Z</time>
      </trkpt>
      <trkpt lat="45.0382" lon="5.92208">
        <ele>2824.75</ele>
        <time>2019-08-24T07:46:20.000Z</time>
      </trkpt>
      <trkpt lat="45.03835" lon="5.92222">
        <ele>2837.53</ele>
        <time>2019-08-24T07:46:56.000Z</time>
      </trkpt>
      <trkpt lat="45.03853" lon="5.92226">
        <ele>2842.07</ele>
        <time>2019-08-24T07:47:19.000Z</time>
      </trkpt>
      <trkpt lat="45.03863" lon="5.92248">
        <ele>2842.74</ele>
        <time>2019-08-24T07:47:40.000Z</time>
      </trkpt>
      <trkpt lat="45.03872" lon="5.92271">
        <ele>2843.5</ele>
        <time>2019-08-24T07:48:05.000Z</time>
      </trkpt>
      <trkpt lat="45.03886" lon="5.92286">
        <ele>2845.29</ele>
        <time>2019-08-24T07:48:34.000Z</time>
      </trkpt>
      <trkpt lat="45.03896" lon="5.92308">
        <ele>2849.62</ele>
        <time>2019-08-24T07:48:53.000Z</time>
      </trkpt>
      <trkpt lat="45.03905" lon="5.92332">
        <ele>2852.89</ele>
        <time>2019-08-24T07:49:11.000Z</time>
      </trkpt>
      <trkpt lat="45.03917" lon="5.92352">
        <ele>2855.44</ele>
        <time>2019-08-24T07:49:27.000Z</time>
      </trkpt>
      <trkpt lat="45.0393" lon="5.92372">
        <ele>2856.5</ele>
        <time>2019-08-24T07:49:52.000Z</time>
      </trkpt>
      <trkpt lat="45.03939" lon="5.92395">
        <ele>2858.66</ele>
        <time>2019-08-24T07:50:09.000Z</time>
      </trkpt>
      <trkpt lat="45.03938" lon="5.92421">
        <ele>2853.76</ele>
        <time>2019-08-24T07:52:50.000Z</time>
      </trkpt>
      <trkpt lat="45.03954" lon="5.92411">
        <ele>2854.81</ele>
        <time>2019-08-24T07:56:07.000Z</time>
      </trkpt>
      <trkpt lat="45.03972" lon="5.92422">
        <ele>2856.35</ele>
        <time>2019-08-24T07:56:23.000Z</time>
      </trkpt>
      <trkpt lat="45.03988" lon="5.92434">
        <ele>2855.7</ele>
        <time>2019-08-24T07:56:37.000Z</time>
      </trkpt>
      <trkpt lat="45.04004" lon="5.92447">
        <ele>2854.63</ele>
        <time>2019-08-24T07:56:56.000Z</time>
      </trkpt>
      <trkpt lat="45.03987" lon="5.92436">
        <ele>2854.95</ele>
        <time>2019-08-24T08:04:51.000Z</time>
      </trkpt>
      <trkpt lat="45.03974" lon="5.92418">
        <ele>2855.45</ele>
        <time>2019-08-24T08:05:06.000Z</time>
      </trkpt>
      <trkpt lat="45.03958" lon="5.92406">
        <ele>2854.74</ele>
        <time>2019-08-24T08:05:31.000Z</time>
      </trkpt>
      <trkpt lat="45.03941" lon="5.92395">
        <ele>2854.95</ele>
        <time>2019-08-24T08:05:48.000Z</time>
      </trkpt>
      <trkpt lat="45.0393" lon="5.92375">
        <ele>2853.54</ele>
        <time>2019-08-24T08:06:04.000Z</time>
      </trkpt>
      <trkpt lat="45.03919" lon="5.92355">
        <ele>2851.75</ele>
        <time>2019-08-24T08:06:41.000Z</time>
      </trkpt>
      <trkpt lat="45.03906" lon="5.92335">
        <ele>2850.68</ele>
        <time>2019-08-24T08:06:56.000Z</time>
      </trkpt>
      <trkpt lat="45.03897" lon="5.92313">
        <ele>2851.52</ele>
        <time>2019-08-24T08:07:12.000Z</time>
      </trkpt>
      <trkpt lat="45.03884" lon="5.92293">
        <ele>2848.04</ele>
        <time>2019-08-24T08:07:56.000Z</time>
      </trkpt>
      <trkpt lat="45.03872" lon="5.92275">
        <ele>2842.06</ele>
        <time>2019-08-24T08:08:41.000Z</time>
      </trkpt>
      <trkpt lat="45.03864" lon="5.92252">
        <ele>2839.32</ele>
        <time>2019-08-24T08:09:15.000Z</time>
      </trkpt>
      <trkpt lat="45.03853" lon="5.9223">
        <ele>2837.84</ele>
        <time>2019-08-24T08:09:48.000Z</time>
      </trkpt>
      <trkpt lat="45.03836" lon="5.92222">
        <ele>2832.74</ele>
        <time>2019-08-24T08:10:12.000Z</time>
      </trkpt>
      <trkpt lat="45.0382" lon="5.92207">
        <ele>2829.04</ele>
        <time>2019-08-24T08:10:38.000Z</time>
      </trkpt>
      <trkpt lat="45.03805" lon="5.92194">
        <ele>2823.48</ele>
        <time>2019-08-24T08:11:24.000Z</time>
      </trkpt>
      <trkpt lat="45.0379" lon="5.9218">
        <ele>2815.74</ele>
        <time>2019-08-24T08:12:00.000Z</time>
      </trkpt>
      <trkpt lat="45.03797" lon="5.92156">
        <ele>2807.66</ele>
        <time>2019-08-24T08:13:04.000Z</time>
      </trkpt>
      <trkpt lat="45.03813" lon="5.92145">
        <ele>2800.85</ele>
        <time>2019-08-24T08:14:06.000Z</time>
      </trkpt>
      <trkpt lat="45.03831" lon="5.92137">
        <ele>2787.04</ele>
        <time>2019-08-24T08:15:06.000Z</time>
      </trkpt>
      <trkpt lat="45.03848" lon="5.92129">
        <ele>2783.53</ele>
        <time>2019-08-24T08:16:03.000Z</time>
      </trkpt>
      <trkpt lat="45.03866" lon="5.92123">
        <ele>2776.02</ele>
        <time>2019-08-24T08:17:00.000Z</time>
      </trkpt>
      <trkpt lat="45.03883" lon="5.92116">
        <ele>2763.81</ele>
        <time>2019-08-24T08:17:46.000Z</time>
      </trkpt>
      <trkpt lat="45.039" lon="5.92107">
        <ele>2758.13</ele>
        <time>2019-08-24T08:18:19.000Z</time>
      </trkpt>
      <trkpt lat="45.03919" lon="5.92107">
        <ele>2750.09</ele>
        <time>2019-08-24T08:20:30.000Z</time>
      </trkpt>
      <trkpt lat="45.03929" lon="5.92086">
        <ele>2746.08</ele>
        <time>2019-08-24T08:20:48.000Z</time>
      </trkpt>
      <trkpt lat="45.03922" lon="5.92061">
        <ele>2744.7</ele>
        <time>2019-08-24T08:21:11.000Z</time>
      </trkpt>
      <trkpt lat="45.03908" lon="5.92044">
        <ele>2737.83</ele>
        <time>2019-08-24T08:22:13.000Z</time>
      </trkpt>
      <trkpt lat="45.03894" lon="5.9203">
        <ele>2737.68</ele>
        <time>2019-08-24T08:22:38.000Z</time>
      </trkpt>
      <trkpt lat="45.03879" lon="5.92013">
        <ele>2731.73</ele>
        <time>2019-08-24T08:23:03.000Z</time>
      </trkpt>
      <trkpt lat="45.03865" lon="5.91997">
        <ele>2725.73</ele>
        <time>2019-08-24T08:23:29.000Z</time>
      </trkpt>
      <trkpt lat="45.03871" lon="5.91973">
        <ele>2716.54</ele>
        <time>2019-08-24T08:23:53.000Z</time>
      </trkpt>
      <trkpt lat="45.03863" lon="5.9195">
        <ele>2715.24</ele>
        <time>2019-08-24T08:24:35.000Z</time>
      </trkpt>
      <trkpt lat="45.03864" lon="5.91924">
        <ele>2705.79</ele>
        <time>2019-08-24T08:25:11.000Z</time>
      </trkpt>
      <trkpt lat="45.03856" lon="5.91899">
        <ele>2698.74</ele>
        <time>2019-08-24T08:25:35.000Z</time>
      </trkpt>
      <trkpt lat="45.03864" lon="5.91876">
        <ele>2690.83</ele>
        <time>2019-08-24T08:26:05.000Z</time>
      </trkpt>
      <trkpt lat="45.03876" lon="5.91855">
        <ele>2687.84</ele>
        <time>2019-08-24T08:26:49.000Z</time>
      </trkpt>
      <trkpt lat="45.03883" lon="5.91831">
        <ele>2685.74</ele>
        <time>2019-08-24T08:27:20.000Z</time>
      </trkpt>
      <trkpt lat="45.03898" lon="5.91814">
        <ele>2678.75</ele>
        <time>2019-08-24T08:27:39.000Z</time>
      </trkpt>
      <trkpt lat="45.03907" lon="5.91792">
        <ele>2672.69</ele>
        <time>2019-08-24T08:28:01.000Z</time>
      </trkpt>
      <trkpt lat="45.03905" lon="5.91766">
        <ele>2671.9</ele>
        <time>2019-08-24T08:28:24.000Z</time>
      </trkpt>
      <trkpt lat="45.03915" lon="5.91743">
        <ele>2667.83</ele>
        <time>2019-08-24T08:28:45.000Z</time>
      </trkpt>
      <trkpt lat="45.03922" lon="5.91719">
        <ele>2666.83</ele>
        <time>2019-08-24T08:29:03.000Z</time>
      </trkpt>
      <trkpt lat="45.03923" lon="5.91692">
        <ele>2662.72</ele>
        <time>2019-08-24T08:29:20.000Z</time>
      </trkpt>
      <trkpt lat="45.03919" lon="5.91666">
        <ele>2661.01</ele>
        <time>2019-08-24T08:29:39.000Z</time>
      </trkpt>
      <trkpt lat="45.03927" lon="5.91643">
        <ele>2659.24</ele>
        <time>2019-08-24T08:29:57.000Z</time>
      </trkpt>
      <trkpt lat="45.03937" lon="5.91621">
        <ele>2663.4</ele>
        <time>2019-08-24T08:30:17.000Z</time>
      </trkpt>
      <trkpt lat="45.0395" lon="5.91603">
        <ele>2663.41</ele>
        <time>2019-08-24T08:30:43.000Z</time>
      </trkpt>
      <trkpt lat="45.03959" lon="5.91581">
        <ele>2669.11</ele>
        <time>2019-08-24T08:31:09.000Z</time>
      </trkpt>
      <trkpt lat="45.0396" lon="5.91554">
        <ele>2671.85</ele>
        <time>2019-08-24T08:31:28.000Z</time>
      </trkpt>
      <trkpt lat="45.03958" lon="5.91528">
        <ele>2674.47</ele>
        <time>2019-08-24T08:31:44.000Z</time>
      </trkpt>
      <trkpt lat="45.03961" lon="5.91503">
        <ele>2675.84</ele>
        <time>2019-08-24T08:32:47.000Z</time>
      </trkpt>
      <trkpt lat="45.03959" lon="5.91477">
        <ele>2683.41</ele>
        <time>2019-08-24T08:33:04.000Z</time>
      </trkpt>
      <trkpt lat="45.03947" lon="5.91457">
        <ele>2684.95</ele>
        <time>2019-08-24T08:33:24.000Z</time>
      </trkpt>
      <trkpt lat="45.03944" lon="5.91431">
        <ele>2692.33</ele>
        <time>2019-08-24T08:33:47.000Z</time>
      </trkpt>
      <trkpt lat="45.03938" lon="5.91406">
        <ele>2690.77</ele>
        <time>2019-08-24T08:34:09.000Z</time>
      </trkpt>
      <trkpt lat="45.03929" lon="5.91382">
        <ele>2690.67</ele>
        <time>2019-08-24T08:34:32.000Z</time>
      </trkpt>
      <trkpt lat="45.03919" lon="5.91361">
        <ele>2687.7</ele>
        <time>2019-08-24T08:34:51.000Z</time>
      </trkpt>
      <trkpt lat="45.03913" lon="5.91336">
        <ele>2684.13</ele>
        <time>2019-08-24T08:35:06.000Z</time>
      </trkpt>
      <trkpt lat="45.0391" lon="5.9131">
        <ele>2687.24</ele>
        <time>2019-08-24T08:35:33.000Z</time>
      </trkpt>
      <trkpt lat="45.03904" lon="5.91286">
        <ele>2678.87</ele>
        <time>2019-08-24T08:35:50.000Z</time>
      </trkpt>
      <trkpt lat="45.03898" lon="5.91261">
        <ele>2681</ele>
        <time>2019-08-24T08:36:04.000Z</time>
      </trkpt>
      <trkpt lat="45.03894" lon="5.91235">
        <ele>2682.39</ele>
        <time>2019-08-24T08:36:22.000Z</time>
      </trkpt>
      <trkpt lat="45.03886" lon="5.91212">
        <ele>2678.68</ele>
        <time>2019-08-24T08:36:56.000Z</time>
      </trkpt>
      <trkpt lat="45.03878" lon="5.91188">
        <ele>2674.04</ele>
        <time>2019-08-24T08:37:12.000Z</time>
      </trkpt>
      <trkpt lat="45.03875" lon="5.91163">
        <ele>2675.44</ele>
        <time>2019-08-24T08:38:03.000Z</time>
      </trkpt>
      <trkpt lat="45.03872" lon="5.91138">
        <ele>2680.73</ele>
        <time>2019-08-24T08:38:22.000Z</time>
      </trkpt>
      <trkpt lat="45.03867" lon="5.91112">
        <ele>2681.19</ele>
        <time>2019-08-24T08:38:39.000Z</time>
      </trkpt>
      <trkpt lat="45.03855" lon="5.91092">
        <ele>2677.34</ele>
        <time>2019-08-24T08:56:54.000Z</time>
      </trkpt>
      <trkpt lat="45.03846" lon="5.91068">
        <ele>2676.65</ele>
        <time>2019-08-24T08:57:15.000Z</time>
      </trkpt>
      <trkpt lat="45.03831" lon="5.91055">
        <ele>2674.74</ele>
        <time>2019-08-24T08:57:30.000Z</time>
      </trkpt>
      <trkpt lat="45.03819" lon="5.91034">
        <ele>2675.96</ele>
        <time>2019-08-24T08:57:51.000Z</time>
      </trkpt>
      <trkpt lat="45.03809" lon="5.91013">
        <ele>2674.75</ele>
        <time>2019-08-24T08:58:08.000Z</time>
      </trkpt>
      <trkpt lat="45.03795" lon="5.90996">
        <ele>2666.17</ele>
        <time>2019-08-24T08:58:25.000Z</time>
      </trkpt>
      <trkpt lat="45.03785" lon="5.90973">
        <ele>2667.44</ele>
        <time>2019-08-24T08:58:40.000Z</time>
      </trkpt>
      <trkpt lat="45.03776" lon="5.90951">
        <ele>2666.83</ele>
        <time>2019-08-24T08:58:59.000Z</time>
      </trkpt>
      <trkpt lat="45.03767" lon="5.90928">
        <ele>2662.51</ele>
        <time>2019-08-24T08:59:25.000Z</time>
      </trkpt>
      <trkpt lat="45.03757" lon="5.90907">
        <ele>2659.85</ele>
        <time>2019-08-24T08:59:51.000Z</time>
      </trkpt>
      <trkpt lat="45.03742" lon="5.90891">
        <ele>2654.76</ele>
        <time>2019-08-24T09:00:18.000Z</time>
      </trkpt>
      <trkpt lat="45.0373" lon="5.90872">
        <ele>2646.15</ele>
        <time>2019-08-24T09:00:51.000Z</time>
      </trkpt>
      <trkpt lat="45.03717" lon="5.90853">
        <ele>2641.84</ele>
        <time>2019-08-24T09:01:33.000Z</time>
      </trkpt>
      <trkpt lat="45.03719" lon="5.90828">
        <ele>2646.74</ele>
        <time>2019-08-24T09:02:46.000Z</time>
      </trkpt>
      <trkpt lat="45.03709" lon="5.90806">
        <ele>2654.45</ele>
        <time>2019-08-24T09:04:31.000Z</time>
      </trkpt>
      <trkpt lat="45.037" lon="5.90783">
        <ele>2650.8</ele>
        <time>2019-08-24T09:05:42.000Z</time>
      </trkpt>
      <trkpt lat="45.0369" lon="5.90762">
        <ele>2652.68</ele>
        <time>2019-08-24T09:06:15.000Z</time>
      </trkpt>
      <trkpt lat="45.03678" lon="5.90743">
        <ele>2647.67</ele>
        <time>2019-08-24T09:06:50.000Z</time>
      </trkpt>
      <trkpt lat="45.03668" lon="5.9072">
        <ele>2646.81</ele>
        <time>2019-08-24T09:07:42.000Z</time>
      </trkpt>
      <trkpt lat="45.03663" lon="5.90694">
        <ele>2649.59</ele>
        <time>2019-08-24T09:08:16.000Z</time>
      </trkpt>
      <trkpt lat="45.03651" lon="5.90675">
        <ele>2641.94</ele>
        <time>2019-08-24T09:08:53.000Z</time>
      </trkpt>
      <trkpt lat="45.03639" lon="5.90655">
        <ele>2631.68</ele>
        <time>2019-08-24T09:09:53.000Z</time>
      </trkpt>
      <trkpt lat="45.03628" lon="5.90634">
        <ele>2626.47</ele>
        <time>2019-08-24T09:10:24.000Z</time>
      </trkpt>
      <trkpt lat="45.03617" lon="5.90614">
        <ele>2627.98</ele>
        <time>2019-08-24T09:10:55.000Z</time>
      </trkpt>
      <trkpt lat="45.03608" lon="5.90591">
        <ele>2622.77</ele>
        <time>2019-08-24T09:11:59.000Z</time>
      </trkpt>
      <trkpt lat="45.03598" lon="5.9057">
        <ele>2617.72</ele>
        <time>2019-08-24T09:13:24.000Z</time>
      </trkpt>
      <trkpt lat="45.03588" lon="5.90548">
        <ele>2612.74</ele>
        <time>2019-08-24T09:14:02.000Z</time>
      </trkpt>
      <trkpt lat="45.03583" lon="5.90523">
        <ele>2617.65</ele>
        <time>2019-08-24T09:14:35.000Z</time>
      </trkpt>
      <trkpt lat="45.03581" lon="5.90497">
        <ele>2616.13</ele>
        <time>2019-08-24T09:15:05.000Z</time>
      </trkpt>
      <trkpt lat="45.03572" lon="5.90475">
        <ele>2609.48</ele>
        <time>2019-08-24T09:15:29.000Z</time>
      </trkpt>
      <trkpt lat="45.0356" lon="5.90455">
        <ele>2605.14</ele>
        <time>2019-08-24T09:15:57.000Z</time>
      </trkpt>
      <trkpt lat="45.0355" lon="5.90434">
        <ele>2603.59</ele>
        <time>2019-08-24T09:18:10.000Z</time>
      </trkpt>
      <trkpt lat="45.03538" lon="5.90415">
        <ele>2596.37</ele>
        <time>2019-08-24T09:18:46.000Z</time>
      </trkpt>
      <trkpt lat="45.03522" lon="5.90403">
        <ele>2590.87</ele>
        <time>2019-08-24T09:19:21.000Z</time>
      </trkpt>
      <trkpt lat="45.03509" lon="5.90384">
        <ele>2583.77</ele>
        <time>2019-08-24T09:20:00.000Z</time>
      </trkpt>
      <trkpt lat="45.03497" lon="5.90364">
        <ele>2577.15</ele>
        <time>2019-08-24T09:20:32.000Z</time>
      </trkpt>
      <trkpt lat="45.03483" lon="5.90347">
        <ele>2580.81</ele>
        <time>2019-08-24T09:22:18.000Z</time>
      </trkpt>
      <trkpt lat="45.03465" lon="5.90339">
        <ele>2571.81</ele>
        <time>2019-08-24T09:22:41.000Z</time>
      </trkpt>
      <trkpt lat="45.03447" lon="5.90339">
        <ele>2567.74</ele>
        <time>2019-08-24T09:25:36.000Z</time>
      </trkpt>
      <trkpt lat="45.0343" lon="5.90329">
        <ele>2559.1</ele>
        <time>2019-08-24T09:25:57.000Z</time>
      </trkpt>
      <trkpt lat="45.03413" lon="5.90325">
        <ele>2554.53</ele>
        <time>2019-08-24T09:26:22.000Z</time>
      </trkpt>
      <trkpt lat="45.03394" lon="5.90327">
        <ele>2548.01</ele>
        <time>2019-08-24T09:26:52.000Z</time>
      </trkpt>
      <trkpt lat="45.03376" lon="5.9033">
        <ele>2540.73</ele>
        <time>2019-08-24T09:27:18.000Z</time>
      </trkpt>
      <trkpt lat="45.03357" lon="5.9033">
        <ele>2534.77</ele>
        <time>2019-08-24T09:27:49.000Z</time>
      </trkpt>
      <trkpt lat="45.03339" lon="5.90333">
        <ele>2530.47</ele>
        <time>2019-08-24T09:28:12.000Z</time>
      </trkpt>
      <trkpt lat="45.03327" lon="5.90313">
        <ele>2521.07</ele>
        <time>2019-08-24T09:28:54.000Z</time>
      </trkpt>
      <trkpt lat="45.03323" lon="5.90288">
        <ele>2513.82</ele>
        <time>2019-08-24T09:29:31.000Z</time>
      </trkpt>
      <trkpt lat="45.03321" lon="5.90263">
        <ele>2506.24</ele>
        <time>2019-08-24T09:30:06.000Z</time>
      </trkpt>
      <trkpt lat="45.03322" lon="5.90237">
        <ele>2496.68</ele>
        <time>2019-08-24T09:30:38.000Z</time>
      </trkpt>
      <trkpt lat="45.03322" lon="5.90211">
        <ele>2490.27</ele>
        <time>2019-08-24T09:31:03.000Z</time>
      </trkpt>
      <trkpt lat="45.03322" lon="5.90184">
        <ele>2480.92</ele>
        <time>2019-08-24T09:31:40.000Z</time>
      </trkpt>
      <trkpt lat="45.0331" lon="5.90164">
        <ele>2477.85</ele>
        <time>2019-08-24T09:32:08.000Z</time>
      </trkpt>
      <trkpt lat="45.03308" lon="5.90138">
        <ele>2468.61</ele>
        <time>2019-08-24T09:32:39.000Z</time>
      </trkpt>
      <trkpt lat="45.03293" lon="5.90125">
        <ele>2460.44</ele>
        <time>2019-08-24T09:33:19.000Z</time>
      </trkpt>
      <trkpt lat="45.03287" lon="5.901">
        <ele>2455.74</ele>
        <time>2019-08-24T09:33:39.000Z</time>
      </trkpt>
      <trkpt lat="45.03303" lon="5.90085">
        <ele>2447.53</ele>
        <time>2019-08-24T09:35:12.000Z</time>
      </trkpt>
      <trkpt lat="45.0332" lon="5.90094">
        <ele>2446.76</ele>
        <time>2019-08-24T09:35:34.000Z</time>
      </trkpt>
      <trkpt lat="45.03338" lon="5.90097">
        <ele>2445.37</ele>
        <time>2019-08-24T09:35:51.000Z</time>
      </trkpt>
      <trkpt lat="45.03355" lon="5.90108">
        <ele>2445.55</ele>
        <time>2019-08-24T09:36:28.000Z</time>
      </trkpt>
      <trkpt lat="45.03374" lon="5.90108">
        <ele>2434.9</ele>
        <time>2019-08-24T09:37:09.000Z</time>
      </trkpt>
      <trkpt lat="45.0339" lon="5.90096">
        <ele>2434.14</ele>
        <time>2019-08-24T09:37:36.000Z</time>
      </trkpt>
      <trkpt lat="45.03407" lon="5.90089">
        <ele>2426.55</ele>
        <time>2019-08-24T09:38:14.000Z</time>
      </trkpt>
      <trkpt lat="45.03422" lon="5.90074">
        <ele>2421.12</ele>
        <time>2019-08-24T09:38:38.000Z</time>
      </trkpt>
      <trkpt lat="45.03439" lon="5.90064">
        <ele>2412.68</ele>
        <time>2019-08-24T09:39:18.000Z</time>
      </trkpt>
      <trkpt lat="45.03456" lon="5.90057">
        <ele>2404.82</ele>
        <time>2019-08-24T09:39:48.000Z</time>
      </trkpt>
      <trkpt lat="45.0347" lon="5.90039">
        <ele>2404.82</ele>
        <time>2019-08-24T09:40:06.000Z</time>
      </trkpt>
      <trkpt lat="45.03485" lon="5.90054">
        <ele>2392.53</ele>
        <time>2019-08-24T09:40:34.000Z</time>
      </trkpt>
      <trkpt lat="45.03503" lon="5.90046">
        <ele>2387.75</ele>
        <time>2019-08-24T09:41:10.000Z</time>
      </trkpt>
      <trkpt lat="45.0352" lon="5.90056">
        <ele>2381.66</ele>
        <time>2019-08-24T09:41:39.000Z</time>
      </trkpt>
      <trkpt lat="45.03537" lon="5.90048">
        <ele>2381.81</ele>
        <time>2019-08-24T09:42:11.000Z</time>
      </trkpt>
      <trkpt lat="45.03554" lon="5.90059">
        <ele>2376.13</ele>
        <time>2019-08-24T09:42:30.000Z</time>
      </trkpt>
      <trkpt lat="45.03573" lon="5.90058">
        <ele>2381.85</ele>
        <time>2019-08-24T09:42:49.000Z</time>
      </trkpt>
      <trkpt lat="45.03592" lon="5.90064">
        <ele>2381.96</ele>
        <time>2019-08-24T09:43:13.000Z</time>
      </trkpt>
      <trkpt lat="45.0361" lon="5.90059">
        <ele>2379.13</ele>
        <time>2019-08-24T09:43:30.000Z</time>
      </trkpt>
      <trkpt lat="45.03624" lon="5.90044">
        <ele>2381.8</ele>
        <time>2019-08-24T09:43:49.000Z</time>
      </trkpt>
      <trkpt lat="45.0364" lon="5.9003">
        <ele>2380.74</ele>
        <time>2019-08-24T09:44:18.000Z</time>
      </trkpt>
      <trkpt lat="45.03657" lon="5.90016">
        <ele>2380.11</ele>
        <time>2019-08-24T09:44:42.000Z</time>
      </trkpt>
      <trkpt lat="45.03675" lon="5.90009">
        <ele>2385.64</ele>
        <time>2019-08-24T09:45:02.000Z</time>
      </trkpt>
      <trkpt lat="45.0369" lon="5.89995">
        <ele>2382.53</ele>
        <time>2019-08-24T09:45:29.000Z</time>
      </trkpt>
      <trkpt lat="45.03707" lon="5.89984">
        <ele>2382.65</ele>
        <time>2019-08-24T09:45:49.000Z</time>
      </trkpt>
      <trkpt lat="45.0372" lon="5.89966">
        <ele>2382.69</ele>
        <time>2019-08-24T09:46:16.000Z</time>
      </trkpt>
      <trkpt lat="45.03736" lon="5.89951">
        <ele>2385.99</ele>
        <time>2019-08-24T09:46:32.000Z</time>
      </trkpt>
      <trkpt lat="45.03752" lon="5.89939">
        <ele>2380.7</ele>
        <time>2019-08-24T09:46:51.000Z</time>
      </trkpt>
      <trkpt lat="45.03766" lon="5.89922">
        <ele>2372.72</ele>
        <time>2019-08-24T09:47:22.000Z</time>
      </trkpt>
      <trkpt lat="45.03776" lon="5.89901">
        <ele>2368.73</ele>
        <time>2019-08-24T09:47:56.000Z</time>
      </trkpt>
      <trkpt lat="45.03783" lon="5.89876">
        <ele>2360.44</ele>
        <time>2019-08-24T09:48:27.000Z</time>
      </trkpt>
      <trkpt lat="45.03793" lon="5.89854">
        <ele>2356.36</ele>
        <time>2019-08-24T09:48:50.000Z</time>
      </trkpt>
      <trkpt lat="45.03804" lon="5.89832">
        <ele>2353.68</ele>
        <time>2019-08-24T09:49:09.000Z</time>
      </trkpt>
      <trkpt lat="45.0381" lon="5.89808">
        <ele>2348.74</ele>
        <time>2019-08-24T09:49:27.000Z</time>
      </trkpt>
      <trkpt lat="45.03815" lon="5.89783">
        <ele>2342.07</ele>
        <time>2019-08-24T09:49:48.000Z</time>
      </trkpt>
      <trkpt lat="45.03823" lon="5.89759">
        <ele>2341.52</ele>
        <time>2019-08-24T09:50:03.000Z</time>
      </trkpt>
      <trkpt lat="45.03835" lon="5.89741">
        <ele>2339.04</ele>
        <time>2019-08-24T09:50:20.000Z</time>
      </trkpt>
      <trkpt lat="45.03851" lon="5.89727">
        <ele>2335.74</ele>
        <time>2019-08-24T09:50:35.000Z</time>
      </trkpt>
      <trkpt lat="45.03863" lon="5.89707">
        <ele>2335.94</ele>
        <time>2019-08-24T09:50:51.000Z</time>
      </trkpt>
      <trkpt lat="45.03874" lon="5.89686">
        <ele>2339.71</ele>
        <time>2019-08-24T09:51:05.000Z</time>
      </trkpt>
      <trkpt lat="45.03885" lon="5.89666">
        <ele>2334.53</ele>
        <time>2019-08-24T09:51:22.000Z</time>
      </trkpt>
      <trkpt lat="45.03885" lon="5.8964">
        <ele>2333.46</ele>
        <time>2019-08-24T09:51:39.000Z</time>
      </trkpt>
      <trkpt lat="45.03882" lon="5.89615">
        <ele>2333.72</ele>
        <time>2019-08-24T09:51:55.000Z</time>
      </trkpt>
      <trkpt lat="45.03884" lon="5.8959">
        <ele>2334.02</ele>
        <time>2019-08-24T09:52:16.000Z</time>
      </trkpt>
      <trkpt lat="45.03891" lon="5.89565">
        <ele>2330.36</ele>
        <time>2019-08-24T09:52:33.000Z</time>
      </trkpt>
      <trkpt lat="45.03894" lon="5.8954">
        <ele>2324.83</ele>
        <time>2019-08-24T09:52:53.000Z</time>
      </trkpt>
      <trkpt lat="45.039" lon="5.89515">
        <ele>2322.04</ele>
        <time>2019-08-24T09:53:11.000Z</time>
      </trkpt>
      <trkpt lat="45.03906" lon="5.8949">
        <ele>2319.93</ele>
        <time>2019-08-24T09:53:26.000Z</time>
      </trkpt>
      <trkpt lat="45.03909" lon="5.89464">
        <ele>2320.95</ele>
        <time>2019-08-24T09:53:40.000Z</time>
      </trkpt>
      <trkpt lat="45.03918" lon="5.8944">
        <ele>2318.44</ele>
        <time>2019-08-24T09:54:18.000Z</time>
      </trkpt>
      <trkpt lat="45.03923" lon="5.89416">
        <ele>2314.83</ele>
        <time>2019-08-24T09:54:47.000Z</time>
      </trkpt>
      <trkpt lat="45.03922" lon="5.8939">
        <ele>2309.07</ele>
        <time>2019-08-24T09:55:06.000Z</time>
      </trkpt>
      <trkpt lat="45.03927" lon="5.89365">
        <ele>2304.47</ele>
        <time>2019-08-24T09:55:23.000Z</time>
      </trkpt>
      <trkpt lat="45.03941" lon="5.89347">
        <ele>2300.93</ele>
        <time>2019-08-24T09:55:38.000Z</time>
      </trkpt>
      <trkpt lat="45.0395" lon="5.89325">
        <ele>2296.54</ele>
        <time>2019-08-24T09:55:55.000Z</time>
      </trkpt>
      <trkpt lat="45.0396" lon="5.89303">
        <ele>2293.87</ele>
        <time>2019-08-24T09:56:12.000Z</time>
      </trkpt>
      <trkpt lat="45.03963" lon="5.89278">
        <ele>2287.03</ele>
        <time>2019-08-24T09:56:32.000Z</time>
      </trkpt>
      <trkpt lat="45.03973" lon="5.89257">
        <ele>2284.22</ele>
        <time>2019-08-24T09:57:19.000Z</time>
      </trkpt>
      <trkpt lat="45.03983" lon="5.89233">
        <ele>2282.84</ele>
        <time>2019-08-24T09:57:42.000Z</time>
      </trkpt>
      <trkpt lat="45.03996" lon="5.89215">
        <ele>2281.04</ele>
        <time>2019-08-24T09:57:57.000Z</time>
      </trkpt>
      <trkpt lat="45.04009" lon="5.89196">
        <ele>2277.73</ele>
        <time>2019-08-24T09:58:13.000Z</time>
      </trkpt>
      <trkpt lat="45.04019" lon="5.89174">
        <ele>2273.65</ele>
        <time>2019-08-24T09:58:32.000Z</time>
      </trkpt>
      <trkpt lat="45.04035" lon="5.89159">
        <ele>2271.63</ele>
        <time>2019-08-24T09:58:45.000Z</time>
      </trkpt>
      <trkpt lat="45.04047" lon="5.89139">
        <ele>2267.06</ele>
        <time>2019-08-24T09:59:01.000Z</time>
      </trkpt>
      <trkpt lat="45.04056" lon="5.89116">
        <ele>2265.78</ele>
        <time>2019-08-24T09:59:18.000Z</time>
      </trkpt>
      <trkpt lat="45.0406" lon="5.8909">
        <ele>2262.86</ele>
        <time>2019-08-24T09:59:43.000Z</time>
      </trkpt>
      <trkpt lat="45.0407" lon="5.89067">
        <ele>2259.04</ele>
        <time>2019-08-24T09:59:57.000Z</time>
      </trkpt>
      <trkpt lat="45.04075" lon="5.89043">
        <ele>2257.74</ele>
        <time>2019-08-24T10:00:13.000Z</time>
      </trkpt>
      <trkpt lat="45.04073" lon="5.89017">
        <ele>2254.75</ele>
        <time>2019-08-24T10:01:16.000Z</time>
      </trkpt>
      <trkpt lat="45.0408" lon="5.88992">
        <ele>2254.35</ele>
        <time>2019-08-24T10:01:56.000Z</time>
      </trkpt>
      <trkpt lat="45.04081" lon="5.88966">
        <ele>2251.07</ele>
        <time>2019-08-24T10:02:09.000Z</time>
      </trkpt>
      <trkpt lat="45.04079" lon="5.88939">
        <ele>2248.51</ele>
        <time>2019-08-24T10:02:22.000Z</time>
      </trkpt>
      <trkpt lat="45.0408" lon="5.88911">
        <ele>2249.67</ele>
        <time>2019-08-24T10:02:35.000Z</time>
      </trkpt>
      <trkpt lat="45.04084" lon="5.88885">
        <ele>2248.98</ele>
        <time>2019-08-24T10:02:47.000Z</time>
      </trkpt>
      <trkpt lat="45.04081" lon="5.88859">
        <ele>2245.82</ele>
        <time>2019-08-24T10:03:00.000Z</time>
      </trkpt>
      <trkpt lat="45.04076" lon="5.88832">
        <ele>2244.9</ele>
        <time>2019-08-24T10:03:13.000Z</time>
      </trkpt>
      <trkpt lat="45.04072" lon="5.88807">
        <ele>2244.7</ele>
        <time>2019-08-24T10:03:26.000Z</time>
      </trkpt>
      <trkpt lat="45.04061" lon="5.88785">
        <ele>2240.55</ele>
        <time>2019-08-24T10:03:40.000Z</time>
      </trkpt>
      <trkpt lat="45.04049" lon="5.88765">
        <ele>2236.74</ele>
        <time>2019-08-24T10:04:04.000Z</time>
      </trkpt>
      <trkpt lat="45.04037" lon="5.88744">
        <ele>2233.11</ele>
        <time>2019-08-24T10:04:18.000Z</time>
      </trkpt>
      <trkpt lat="45.04022" lon="5.88727">
        <ele>2230.99</ele>
        <time>2019-08-24T10:04:32.000Z</time>
      </trkpt>
      <trkpt lat="45.0401" lon="5.88707">
        <ele>2228.06</ele>
        <time>2019-08-24T10:04:46.000Z</time>
      </trkpt>
      <trkpt lat="45.03996" lon="5.8869">
        <ele>2224.77</ele>
        <time>2019-08-24T10:05:00.000Z</time>
      </trkpt>
      <trkpt lat="45.03983" lon="5.88672">
        <ele>2222.04</ele>
        <time>2019-08-24T10:05:15.000Z</time>
      </trkpt>
      <trkpt lat="45.03972" lon="5.88651">
        <ele>2215.08</ele>
        <time>2019-08-24T10:05:31.000Z</time>
      </trkpt>
      <trkpt lat="45.03959" lon="5.88632">
        <ele>2212.78</ele>
        <time>2019-08-24T10:05:46.000Z</time>
      </trkpt>
      <trkpt lat="45.03947" lon="5.8861">
        <ele>2208.73</ele>
        <time>2019-08-24T10:06:02.000Z</time>
      </trkpt>
      <trkpt lat="45.03935" lon="5.88591">
        <ele>2203.43</ele>
        <time>2019-08-24T10:06:16.000Z</time>
      </trkpt>
      <trkpt lat="45.03923" lon="5.88572">
        <ele>2199.79</ele>
        <time>2019-08-24T10:06:30.000Z</time>
      </trkpt>
      <trkpt lat="45.0391" lon="5.88552">
        <ele>2194.81</ele>
        <time>2019-08-24T10:06:51.000Z</time>
      </trkpt>
      <trkpt lat="45.03899" lon="5.88532">
        <ele>2191.81</ele>
        <time>2019-08-24T10:07:05.000Z</time>
      </trkpt>
      <trkpt lat="45.03887" lon="5.88512">
        <ele>2187.77</ele>
        <time>2019-08-24T10:07:20.000Z</time>
      </trkpt>
      <trkpt lat="45.03876" lon="5.88492">
        <ele>2184.83</ele>
        <time>2019-08-24T10:07:39.000Z</time>
      </trkpt>
      <trkpt lat="45.03866" lon="5.8847">
        <ele>2178.86</ele>
        <time>2019-08-24T10:07:58.000Z</time>
      </trkpt>
      <trkpt lat="45.03852" lon="5.88452">
        <ele>2173.74</ele>
        <time>2019-08-24T10:08:20.000Z</time>
      </trkpt>
      <trkpt lat="45.0384" lon="5.88432">
        <ele>2170.67</ele>
        <time>2019-08-24T10:08:37.000Z</time>
      </trkpt>
      <trkpt lat="45.03831" lon="5.88409">
        <ele>2164.98</ele>
        <time>2019-08-24T10:08:53.000Z</time>
      </trkpt>
      <trkpt lat="45.0382" lon="5.88388">
        <ele>2160.53</ele>
        <time>2019-08-24T10:09:08.000Z</time>
      </trkpt>
      <trkpt lat="45.03813" lon="5.88363">
        <ele>2154.13</ele>
        <time>2019-08-24T10:09:26.000Z</time>
      </trkpt>
      <trkpt lat="45.03805" lon="5.8834">
        <ele>2153.75</ele>
        <time>2019-08-24T10:09:42.000Z</time>
      </trkpt>
      <trkpt lat="45.03795" lon="5.88318">
        <ele>2150.74</ele>
        <time>2019-08-24T10:10:00.000Z</time>
      </trkpt>
      <trkpt lat="45.0379" lon="5.88293">
        <ele>2149.55</ele>
        <time>2019-08-24T10:10:13.000Z</time>
      </trkpt>
      <trkpt lat="45.03791" lon="5.88267">
        <ele>2152.33</ele>
        <time>2019-08-24T10:10:25.000Z</time>
      </trkpt>
      <trkpt lat="45.03792" lon="5.88241">
        <ele>2148.28</ele>
        <time>2019-08-24T10:10:40.000Z</time>
      </trkpt>
      <trkpt lat="45.03797" lon="5.88216">
        <ele>2147.52</ele>
        <time>2019-08-24T10:10:52.000Z</time>
      </trkpt>
      <trkpt lat="45.03795" lon="5.8819">
        <ele>2143.66</ele>
        <time>2019-08-24T10:12:04.000Z</time>
      </trkpt>
      <trkpt lat="45.03794" lon="5.88164">
        <ele>2139.83</ele>
        <time>2019-08-24T10:13:10.000Z</time>
      </trkpt>
      <trkpt lat="45.03795" lon="5.88138">
        <ele>2136.73</ele>
        <time>2019-08-24T10:13:43.000Z</time>
      </trkpt>
      <trkpt lat="45.03795" lon="5.88112">
        <ele>2135.44</ele>
        <time>2019-08-24T10:13:58.000Z</time>
      </trkpt>
      <trkpt lat="45.03797" lon="5.88087">
        <ele>2131.56</ele>
        <time>2019-08-24T10:14:15.000Z</time>
      </trkpt>
      <trkpt lat="45.03798" lon="5.8806">
        <ele>2125.75</ele>
        <time>2019-08-24T10:14:31.000Z</time>
      </trkpt>
      <trkpt lat="45.03796" lon="5.88035">
        <ele>2122.08</ele>
        <time>2019-08-24T10:14:44.000Z</time>
      </trkpt>
      <trkpt lat="45.03794" lon="5.88008">
        <ele>2117.04</ele>
        <time>2019-08-24T10:14:59.000Z</time>
      </trkpt>
      <trkpt lat="45.03793" lon="5.87982">
        <ele>2111.74</ele>
        <time>2019-08-24T10:15:17.000Z</time>
      </trkpt>
      <trkpt lat="45.03797" lon="5.87955">
        <ele>2110.5</ele>
        <time>2019-08-24T10:15:32.000Z</time>
      </trkpt>
      <trkpt lat="45.03795" lon="5.8793">
        <ele>2102.14</ele>
        <time>2019-08-24T10:15:46.000Z</time>
      </trkpt>
      <trkpt lat="45.03797" lon="5.87904">
        <ele>2096.35</ele>
        <time>2019-08-24T10:16:01.000Z</time>
      </trkpt>
      <trkpt lat="45.0379" lon="5.8788">
        <ele>2090.12</ele>
        <time>2019-08-24T10:16:23.000Z</time>
      </trkpt>
      <trkpt lat="45.03789" lon="5.87854">
        <ele>2085.86</ele>
        <time>2019-08-24T10:16:44.000Z</time>
      </trkpt>
      <trkpt lat="45.03796" lon="5.87831">
        <ele>2080.47</ele>
        <time>2019-08-24T10:17:03.000Z</time>
      </trkpt>
      <trkpt lat="45.03806" lon="5.87809">
        <ele>2073.92</ele>
        <time>2019-08-24T10:17:24.000Z</time>
      </trkpt>
      <trkpt lat="45.03818" lon="5.87789">
        <ele>2069.76</ele>
        <time>2019-08-24T10:17:45.000Z</time>
      </trkpt>
      <trkpt lat="45.03831" lon="5.87771">
        <ele>2061.86</ele>
        <time>2019-08-24T10:18:10.000Z</time>
      </trkpt>
      <trkpt lat="45.03842" lon="5.87749">
        <ele>2057.71</ele>
        <time>2019-08-24T10:18:38.000Z</time>
      </trkpt>
      <trkpt lat="45.03851" lon="5.87727">
        <ele>2049.14</ele>
        <time>2019-08-24T10:19:10.000Z</time>
      </trkpt>
      <trkpt lat="45.03839" lon="5.87708">
        <ele>2045.38</ele>
        <time>2019-08-24T10:19:31.000Z</time>
      </trkpt>
      <trkpt lat="45.03838" lon="5.87682">
        <ele>2032.07</ele>
        <time>2019-08-24T10:20:05.000Z</time>
      </trkpt>
      <trkpt lat="45.03845" lon="5.87658">
        <ele>2024.89</ele>
        <time>2019-08-24T10:20:38.000Z</time>
      </trkpt>
      <trkpt lat="45.03849" lon="5.87632">
        <ele>2019.27</ele>
        <time>2019-08-24T10:21:09.000Z</time>
      </trkpt>
      <trkpt lat="45.03849" lon="5.87607">
        <ele>2006.1</ele>
        <time>2019-08-24T10:21:41.000Z</time>
      </trkpt>
      <trkpt lat="45.03856" lon="5.87583">
        <ele>2001.04</ele>
        <time>2019-08-24T10:22:07.000Z</time>
      </trkpt>
      <trkpt lat="45.0387" lon="5.87565">
        <ele>1995.78</ele>
        <time>2019-08-24T10:22:34.000Z</time>
      </trkpt>
      <trkpt lat="45.03856" lon="5.87548">
        <ele>1993.98</ele>
        <time>2019-08-24T10:22:57.000Z</time>
      </trkpt>
      <trkpt lat="45.0387" lon="5.87531">
        <ele>1985.48</ele>
        <time>2019-08-24T10:23:14.000Z</time>
      </trkpt>
      <trkpt lat="45.03881" lon="5.8751">
        <ele>1977.72</ele>
        <time>2019-08-24T10:23:54.000Z</time>
      </trkpt>
      <trkpt lat="45.039" lon="5.87507">
        <ele>1973.41</ele>
        <time>2019-08-24T10:24:21.000Z</time>
      </trkpt>
      <trkpt lat="45.03918" lon="5.87515">
        <ele>1969.3</ele>
        <time>2019-08-24T10:24:39.000Z</time>
      </trkpt>
      <trkpt lat="45.03935" lon="5.87506">
        <ele>1959.07</ele>
        <time>2019-08-24T10:25:06.000Z</time>
      </trkpt>
      <trkpt lat="45.03952" lon="5.87515">
        <ele>1955.06</ele>
        <time>2019-08-24T10:25:28.000Z</time>
      </trkpt>
      <trkpt lat="45.0397" lon="5.87516">
        <ele>1953.44</ele>
        <time>2019-08-24T10:25:47.000Z</time>
      </trkpt>
      <trkpt lat="45.03986" lon="5.8753">
        <ele>1949.48</ele>
        <time>2019-08-24T10:26:07.000Z</time>
      </trkpt>
      <trkpt lat="45.04005" lon="5.87529">
        <ele>1940.16</ele>
        <time>2019-08-24T10:26:25.000Z</time>
      </trkpt>
      <trkpt lat="45.0402" lon="5.87513">
        <ele>1937.47</ele>
        <time>2019-08-24T10:26:38.000Z</time>
      </trkpt>
      <trkpt lat="45.0403" lon="5.8749">
        <ele>1932.87</ele>
        <time>2019-08-24T10:26:56.000Z</time>
      </trkpt>
      <trkpt lat="45.04044" lon="5.87474">
        <ele>1929.86</ele>
        <time>2019-08-24T10:27:14.000Z</time>
      </trkpt>
      <trkpt lat="45.04057" lon="5.87455">
        <ele>1924.13</ele>
        <time>2019-08-24T10:27:41.000Z</time>
      </trkpt>
      <trkpt lat="45.04073" lon="5.87442">
        <ele>1921.92</ele>
        <time>2019-08-24T10:28:04.000Z</time>
      </trkpt>
      <trkpt lat="45.04091" lon="5.87434">
        <ele>1913.77</ele>
        <time>2019-08-24T10:28:28.000Z</time>
      </trkpt>
      <trkpt lat="45.04107" lon="5.87422">
        <ele>1912.13</ele>
        <time>2019-08-24T10:28:48.000Z</time>
      </trkpt>
      <trkpt lat="45.04124" lon="5.87418">
        <ele>1908.1</ele>
        <time>2019-08-24T10:29:07.000Z</time>
      </trkpt>
      <trkpt lat="45.04123" lon="5.87391">
        <ele>1899.88</ele>
        <time>2019-08-24T10:29:51.000Z</time>
      </trkpt>
      <trkpt lat="45.04116" lon="5.87366">
        <ele>1890.64</ele>
        <time>2019-08-24T10:30:21.000Z</time>
      </trkpt>
      <trkpt lat="45.04121" lon="5.87341">
        <ele>1885.36</ele>
        <time>2019-08-24T10:30:55.000Z</time>
      </trkpt>
      <trkpt lat="45.04134" lon="5.87322">
        <ele>1871.87</ele>
        <time>2019-08-24T10:31:26.000Z</time>
      </trkpt>
      <trkpt lat="45.0415" lon="5.87309">
        <ele>1877.01</ele>
        <time>2019-08-24T10:31:47.000Z</time>
      </trkpt>
      <trkpt lat="45.04168" lon="5.87302">
        <ele>1868.05</ele>
        <time>2019-08-24T10:32:06.000Z</time>
      </trkpt>
      <trkpt lat="45.04175" lon="5.87279">
        <ele>1861.01</ele>
        <time>2019-08-24T10:32:28.000Z</time>
      </trkpt>
      <trkpt lat="45.04187" lon="5.8726">
        <ele>1854.77</ele>
        <time>2019-08-24T10:32:50.000Z</time>
      </trkpt>
      <trkpt lat="45.04204" lon="5.8725">
        <ele>1853.66</ele>
        <time>2019-08-24T10:33:08.000Z</time>
      </trkpt>
      <trkpt lat="45.04221" lon="5.87236">
        <ele>1851.72</ele>
        <time>2019-08-24T10:33:27.000Z</time>
      </trkpt>
      <trkpt lat="45.04234" lon="5.87255">
        <ele>1842</ele>
        <time>2019-08-24T10:33:46.000Z</time>
      </trkpt>
      <trkpt lat="45.04243" lon="5.87279">
        <ele>1843.17</ele>
        <time>2019-08-24T10:35:13.000Z</time>
      </trkpt>
      <trkpt lat="45.04252" lon="5.87301">
        <ele>1841.89</ele>
        <time>2019-08-24T10:35:34.000Z</time>
      </trkpt>
      <trkpt lat="45.04256" lon="5.87326">
        <ele>1833.74</ele>
        <time>2019-08-24T10:35:59.000Z</time>
      </trkpt>
      <trkpt lat="45.04274" lon="5.87331">
        <ele>1823.74</ele>
        <time>2019-08-24T10:37:03.000Z</time>
      </trkpt>
      <trkpt lat="45.0429" lon="5.87321">
        <ele>1808.57</ele>
        <time>2019-08-24T10:38:12.000Z</time>
      </trkpt>
      <trkpt lat="45.04305" lon="5.87306">
        <ele>1795.8</ele>
        <time>2019-08-24T10:39:22.000Z</time>
      </trkpt>
      <trkpt lat="45.04324" lon="5.87306">
        <ele>1784.72</ele>
        <time>2019-08-24T10:40:42.000Z</time>
      </trkpt>
      <trkpt lat="45.04337" lon="5.87288">
        <ele>1772.74</ele>
        <time>2019-08-24T10:41:45.000Z</time>
      </trkpt>
      <trkpt lat="45.04349" lon="5.8727">
        <ele>1766.8</ele>
        <time>2019-08-24T10:42:33.000Z</time>
      </trkpt>
      <trkpt lat="45.04366" lon="5.8726">
        <ele>1766.33</ele>
        <time>2019-08-24T10:43:03.000Z</time>
      </trkpt>
      <trkpt lat="45.04384" lon="5.87254">
        <ele>1768.38</ele>
        <time>2019-08-24T10:43:34.000Z</time>
      </trkpt>
      <trkpt lat="45.04392" lon="5.87232">
        <ele>1749.03</ele>
        <time>2019-08-24T10:44:30.000Z</time>
      </trkpt>
      <trkpt lat="45.04411" lon="5.87236">
        <ele>1747.71</ele>
        <time>2019-08-24T10:44:45.000Z</time>
      </trkpt>
      <trkpt lat="45.0443" lon="5.87232">
        <ele>1747.83</ele>
        <time>2019-08-24T10:45:10.000Z</time>
      </trkpt>
      <trkpt lat="45.0444" lon="5.87211">
        <ele>1739.93</ele>
        <time>2019-08-24T10:45:46.000Z</time>
      </trkpt>
      <trkpt lat="45.04456" lon="5.87198">
        <ele>1738.13</ele>
        <time>2019-08-24T10:46:21.000Z</time>
      </trkpt>
      <trkpt lat="45.04473" lon="5.87189">
        <ele>1722.95</ele>
        <time>2019-08-24T10:46:59.000Z</time>
      </trkpt>
      <trkpt lat="45.04492" lon="5.87185">
        <ele>1726.77</ele>
        <time>2019-08-24T10:47:20.000Z</time>
      </trkpt>
      <trkpt lat="45.0451" lon="5.87193">
        <ele>1720.74</ele>
        <time>2019-08-24T10:47:55.000Z</time>
      </trkpt>
      <trkpt lat="45.04529" lon="5.87195">
        <ele>1720.44</ele>
        <time>2019-08-24T10:48:13.000Z</time>
      </trkpt>
      <trkpt lat="45.04546" lon="5.87205">
        <ele>1703.97</ele>
        <time>2019-08-24T10:49:04.000Z</time>
      </trkpt>
      <trkpt lat="45.04563" lon="5.87217">
        <ele>1700.73</ele>
        <time>2019-08-24T10:49:19.000Z</time>
      </trkpt>
      <trkpt lat="45.04576" lon="5.87234">
        <ele>1699.9</ele>
        <time>2019-08-24T10:49:31.000Z</time>
      </trkpt>
      <trkpt lat="45.04591" lon="5.87253">
        <ele>1702.65</ele>
        <time>2019-08-24T10:49:43.000Z</time>
      </trkpt>
      <trkpt lat="45.0461" lon="5.87258">
        <ele>1696.13</ele>
        <time>2019-08-24T10:49:57.000Z</time>
      </trkpt>
      <trkpt lat="45.04628" lon="5.87263">
        <ele>1690.91</ele>
        <time>2019-08-24T10:50:10.000Z</time>
      </trkpt>
      <trkpt lat="45.04646" lon="5.87264">
        <ele>1686.51</ele>
        <time>2019-08-24T10:50:24.000Z</time>
      </trkpt>
      <trkpt lat="45.04665" lon="5.87269">
        <ele>1683.04</ele>
        <time>2019-08-24T10:50:37.000Z</time>
      </trkpt>
      <trkpt lat="45.04683" lon="5.87276">
        <ele>1682.8</ele>
        <time>2019-08-24T10:50:50.000Z</time>
      </trkpt>
      <trkpt lat="45.04699" lon="5.8729">
        <ele>1679.55</ele>
        <time>2019-08-24T10:51:02.000Z</time>
      </trkpt>
      <trkpt lat="45.04707" lon="5.87313">
        <ele>1682.69</ele>
        <time>2019-08-24T10:51:14.000Z</time>
      </trkpt>
      <trkpt lat="45.04716" lon="5.87335">
        <ele>1679.74</ele>
        <time>2019-08-24T10:51:28.000Z</time>
      </trkpt>
      <trkpt lat="45.04718" lon="5.87362">
        <ele>1680.34</ele>
        <time>2019-08-24T10:51:46.000Z</time>
      </trkpt>
      <trkpt lat="45.04731" lon="5.87382">
        <ele>1678.46</ele>
        <time>2019-08-24T10:51:59.000Z</time>
      </trkpt>
      <trkpt lat="45.04736" lon="5.87407">
        <ele>1681.06</ele>
        <time>2019-08-24T10:52:12.000Z</time>
      </trkpt>
      <trkpt lat="45.04738" lon="5.87433">
        <ele>1677.74</ele>
        <time>2019-08-24T10:52:27.000Z</time>
      </trkpt>
      <trkpt lat="45.04749" lon="5.87454">
        <ele>1676.5</ele>
        <time>2019-08-24T10:52:41.000Z</time>
      </trkpt>
      <trkpt lat="45.04748" lon="5.8748">
        <ele>1679.01</ele>
        <time>2019-08-24T10:52:57.000Z</time>
      </trkpt>
      <trkpt lat="45.04751" lon="5.87508">
        <ele>1672.79</ele>
        <time>2019-08-24T10:53:25.000Z</time>
      </trkpt>
      <trkpt lat="45.0476" lon="5.8753">
        <ele>1674.83</ele>
        <time>2019-08-24T10:53:36.000Z</time>
      </trkpt>
      <trkpt lat="45.0476" lon="5.87556">
        <ele>1674.45</ele>
        <time>2019-08-24T10:53:52.000Z</time>
      </trkpt>
      <trkpt lat="45.04767" lon="5.8758">
        <ele>1674.58</ele>
        <time>2019-08-24T10:54:07.000Z</time>
      </trkpt>
      <trkpt lat="45.04765" lon="5.87606">
        <ele>1672.79</ele>
        <time>2019-08-24T10:54:26.000Z</time>
      </trkpt>
      <trkpt lat="45.0477" lon="5.87632">
        <ele>1672.94</ele>
        <time>2019-08-24T10:54:40.000Z</time>
      </trkpt>
      <trkpt lat="45.04771" lon="5.87658">
        <ele>1675.71</ele>
        <time>2019-08-24T10:54:59.000Z</time>
      </trkpt>
      <trkpt lat="45.04778" lon="5.87682">
        <ele>1679.01</ele>
        <time>2019-08-24T10:55:22.000Z</time>
      </trkpt>
      <trkpt lat="45.0478" lon="5.87707">
        <ele>1682.75</ele>
        <time>2019-08-24T10:55:39.000Z</time>
      </trkpt>
      <trkpt lat="45.04774" lon="5.87731">
        <ele>1688.37</ele>
        <time>2019-08-24T10:55:58.000Z</time>
      </trkpt>
      <trkpt lat="45.04783" lon="5.87756">
        <ele>1687.65</ele>
        <time>2019-08-24T10:56:23.000Z</time>
      </trkpt>
      <trkpt lat="45.04782" lon="5.87783">
        <ele>1687.74</ele>
        <time>2019-08-24T10:56:51.000Z</time>
      </trkpt>
      <trkpt lat="45.0478" lon="5.87809">
        <ele>1691.45</ele>
        <time>2019-08-24T10:57:13.000Z</time>
      </trkpt>
      <trkpt lat="45.04779" lon="5.87834">
        <ele>1696.02</ele>
        <time>2019-08-24T10:57:34.000Z</time>
      </trkpt>
      <trkpt lat="45.04779" lon="5.8786">
        <ele>1697.97</ele>
        <time>2019-08-24T10:57:54.000Z</time>
      </trkpt>
      <trkpt lat="45.04781" lon="5.87885">
        <ele>1706.12</ele>
        <time>2019-08-24T10:58:31.000Z</time>
      </trkpt>
      <trkpt lat="45.0478" lon="5.87912">
        <ele>1700.74</ele>
        <time>2019-08-24T10:59:53.000Z</time>
      </trkpt>
      <trkpt lat="45.04786" lon="5.87938">
        <ele>1697.94</ele>
        <time>2019-08-24T11:00:07.000Z</time>
      </trkpt>
      <trkpt lat="45.04804" lon="5.8794">
        <ele>1708.01</ele>
        <time>2019-08-24T11:00:41.000Z</time>
      </trkpt>
      <trkpt lat="45.04798" lon="5.87966">
        <ele>1707.65</ele>
        <time>2019-08-24T11:01:06.000Z</time>
      </trkpt>
      <trkpt lat="45.04808" lon="5.87988">
        <ele>1701.73</ele>
        <time>2019-08-24T11:02:27.000Z</time>
      </trkpt>
      <trkpt lat="45.04821" lon="5.88009">
        <ele>1697.8</ele>
        <time>2019-08-24T11:02:47.000Z</time>
      </trkpt>
      <trkpt lat="45.0482" lon="5.88036">
        <ele>1699.65</ele>
        <time>2019-08-24T11:03:09.000Z</time>
      </trkpt>
      <trkpt lat="45.04837" lon="5.88042">
        <ele>1702.63</ele>
        <time>2019-08-24T11:03:23.000Z</time>
      </trkpt>
      <trkpt lat="45.04852" lon="5.88059">
        <ele>1699.47</ele>
        <time>2019-08-24T11:03:39.000Z</time>
      </trkpt>
      <trkpt lat="45.04866" lon="5.88075">
        <ele>1695.61</ele>
        <time>2019-08-24T11:03:54.000Z</time>
      </trkpt>
      <trkpt lat="45.04883" lon="5.88087">
        <ele>1695.85</ele>
        <time>2019-08-24T11:04:08.000Z</time>
      </trkpt>
      <trkpt lat="45.04897" lon="5.88105">
        <ele>1696.04</ele>
        <time>2019-08-24T11:04:23.000Z</time>
      </trkpt>
      <trkpt lat="45.04906" lon="5.88129">
        <ele>1691.44</ele>
        <time>2019-08-24T11:04:39.000Z</time>
      </trkpt>
      <trkpt lat="45.04912" lon="5.88153">
        <ele>1682.82</ele>
        <time>2019-08-24T11:04:58.000Z</time>
      </trkpt>
      <trkpt lat="45.0492" lon="5.88176">
        <ele>1682.74</ele>
        <time>2019-08-24T11:05:11.000Z</time>
      </trkpt>
      <trkpt lat="45.0493" lon="5.88199">
        <ele>1687.59</ele>
        <time>2019-08-24T11:05:30.000Z</time>
      </trkpt>
      <trkpt lat="45.04941" lon="5.88221">
        <ele>1698.68</ele>
        <time>2019-08-24T11:05:53.000Z</time>
      </trkpt>
      <trkpt lat="45.04951" lon="5.88243">
        <ele>1700.74</ele>
        <time>2019-08-24T11:06:08.000Z</time>
      </trkpt>
      <trkpt lat="45.04961" lon="5.88266">
        <ele>1697.59</ele>
        <time>2019-08-24T11:06:26.000Z</time>
      </trkpt>
      <trkpt lat="45.04965" lon="5.88292">
        <ele>1700.36</ele>
        <time>2019-08-24T11:06:44.000Z</time>
      </trkpt>
      <trkpt lat="45.0498" lon="5.88309">
        <ele>1705.31</ele>
        <time>2019-08-24T11:06:59.000Z</time>
      </trkpt>
      <trkpt lat="45.04992" lon="5.88328">
        <ele>1703.71</ele>
        <time>2019-08-24T11:07:12.000Z</time>
      </trkpt>
      <trkpt lat="45.04996" lon="5.88354">
        <ele>1700.77</ele>
        <time>2019-08-24T11:07:28.000Z</time>
      </trkpt>
      <trkpt lat="45.0501" lon="5.88371">
        <ele>1709.77</ele>
        <time>2019-08-24T11:07:54.000Z</time>
      </trkpt>
      <trkpt lat="45.05022" lon="5.8839">
        <ele>1712.75</ele>
        <time>2019-08-24T11:08:06.000Z</time>
      </trkpt>
      <trkpt lat="45.05035" lon="5.88409">
        <ele>1712.59</ele>
        <time>2019-08-24T11:08:32.000Z</time>
      </trkpt>
      <trkpt lat="45.05049" lon="5.88426">
        <ele>1715.68</ele>
        <time>2019-08-24T11:08:50.000Z</time>
      </trkpt>
      <trkpt lat="45.05066" lon="5.8844">
        <ele>1720.29</ele>
        <time>2019-08-24T11:09:13.000Z</time>
      </trkpt>
      <trkpt lat="45.05078" lon="5.8846">
        <ele>1724.66</ele>
        <time>2019-08-24T11:09:33.000Z</time>
      </trkpt>
      <trkpt lat="45.05094" lon="5.88473">
        <ele>1724.09</ele>
        <time>2019-08-24T11:09:56.000Z</time>
      </trkpt>
      <trkpt lat="45.0511" lon="5.88485">
        <ele>1720.01</ele>
        <time>2019-08-24T11:10:10.000Z</time>
      </trkpt>
      <trkpt lat="45.05114" lon="5.8851">
        <ele>1720.76</ele>
        <time>2019-08-24T11:10:33.000Z</time>
      </trkpt>
      <trkpt lat="45.05128" lon="5.88527">
        <ele>1723.73</ele>
        <time>2019-08-24T11:10:59.000Z</time>
      </trkpt>
      <trkpt lat="45.05128" lon="5.88552">
        <ele>1723.68</ele>
        <time>2019-08-24T11:11:15.000Z</time>
      </trkpt>
      <trkpt lat="45.05134" lon="5.88577">
        <ele>1717.51</ele>
        <time>2019-08-24T11:11:32.000Z</time>
      </trkpt>
      <trkpt lat="45.05148" lon="5.88593">
        <ele>1725.21</ele>
        <time>2019-08-24T11:11:51.000Z</time>
      </trkpt>
      <trkpt lat="45.05161" lon="5.88613">
        <ele>1722.67</ele>
        <time>2019-08-24T11:12:12.000Z</time>
      </trkpt>
      <trkpt lat="45.05169" lon="5.88636">
        <ele>1723.4</ele>
        <time>2019-08-24T11:12:31.000Z</time>
      </trkpt>
      <trkpt lat="45.05176" lon="5.8866">
        <ele>1717.75</ele>
        <time>2019-08-24T11:12:57.000Z</time>
      </trkpt>
      <trkpt lat="45.05176" lon="5.88688">
        <ele>1705.94</ele>
        <time>2019-08-24T11:13:55.000Z</time>
      </trkpt>
      <trkpt lat="45.05177" lon="5.88713">
        <ele>1710.75</ele>
        <time>2019-08-24T11:14:12.000Z</time>
      </trkpt>
      <trkpt lat="45.05177" lon="5.8874">
        <ele>1706.76</ele>
        <time>2019-08-24T11:14:31.000Z</time>
      </trkpt>
      <trkpt lat="45.05173" lon="5.88766">
        <ele>1707.83</ele>
        <time>2019-08-24T11:14:57.000Z</time>
      </trkpt>
      <trkpt lat="45.05181" lon="5.8879">
        <ele>1700.55</ele>
        <time>2019-08-24T11:15:21.000Z</time>
      </trkpt>
      <trkpt lat="45.05173" lon="5.88814">
        <ele>1698.38</ele>
        <time>2019-08-24T11:15:36.000Z</time>
      </trkpt>
      <trkpt lat="45.05179" lon="5.88838">
        <ele>1700.27</ele>
        <time>2019-08-24T11:15:59.000Z</time>
      </trkpt>
      <trkpt lat="45.05181" lon="5.88863">
        <ele>1700.38</ele>
        <time>2019-08-24T11:16:46.000Z</time>
      </trkpt>
      <trkpt lat="45.05184" lon="5.88889">
        <ele>1700.25</ele>
        <time>2019-08-24T11:17:01.000Z</time>
      </trkpt>
      <trkpt lat="45.05186" lon="5.88916">
        <ele>1694.63</ele>
        <time>2019-08-24T11:17:18.000Z</time>
      </trkpt>
      <trkpt lat="45.05201" lon="5.8893">
        <ele>1694.47</ele>
        <time>2019-08-24T11:17:30.000Z</time>
      </trkpt>
      <trkpt lat="45.05209" lon="5.88954">
        <ele>1693.74</ele>
        <time>2019-08-24T11:18:03.000Z</time>
      </trkpt>
      <trkpt lat="45.05216" lon="5.8898">
        <ele>1694.06</ele>
        <time>2019-08-24T11:18:17.000Z</time>
      </trkpt>
      <trkpt lat="45.05213" lon="5.89006">
        <ele>1695.42</ele>
        <time>2019-08-24T11:18:54.000Z</time>
      </trkpt>
      <trkpt lat="45.0521" lon="5.89033">
        <ele>1686.97</ele>
        <time>2019-08-24T11:19:11.000Z</time>
      </trkpt>
      <trkpt lat="45.05207" lon="5.89059">
        <ele>1687.84</ele>
        <time>2019-08-24T11:19:32.000Z</time>
      </trkpt>
      <trkpt lat="45.05196" lon="5.89081">
        <ele>1689.89</ele>
        <time>2019-08-24T11:19:49.000Z</time>
      </trkpt>
      <trkpt lat="45.05202" lon="5.89106">
        <ele>1689.95</ele>
        <time>2019-08-24T11:20:20.000Z</time>
      </trkpt>
      <trkpt lat="45.05204" lon="5.89131">
        <ele>1688.98</ele>
        <time>2019-08-24T11:20:40.000Z</time>
      </trkpt>
      <trkpt lat="45.05189" lon="5.89148">
        <ele>1691.32</ele>
        <time>2019-08-24T11:20:53.000Z</time>
      </trkpt>
      <trkpt lat="45.05181" lon="5.89171">
        <ele>1691.5</ele>
        <time>2019-08-24T11:21:04.000Z</time>
      </trkpt>
      <trkpt lat="45.05182" lon="5.89197">
        <ele>1690.17</ele>
        <time>2019-08-24T11:21:16.000Z</time>
      </trkpt>
      <trkpt lat="45.05186" lon="5.89224">
        <ele>1686.76</ele>
        <time>2019-08-24T11:21:31.000Z</time>
      </trkpt>
      <trkpt lat="45.05186" lon="5.89251">
        <ele>1686.74</ele>
        <time>2019-08-24T11:21:44.000Z</time>
      </trkpt>
      <trkpt lat="45.05186" lon="5.89277">
        <ele>1686.77</ele>
        <time>2019-08-24T11:21:57.000Z</time>
      </trkpt>
      <trkpt lat="45.05178" lon="5.89302">
        <ele>1686.05</ele>
        <time>2019-08-24T11:22:11.000Z</time>
      </trkpt>
      <trkpt lat="45.05181" lon="5.89328">
        <ele>1684.89</ele>
        <time>2019-08-24T11:22:24.000Z</time>
      </trkpt>
      <trkpt lat="45.05183" lon="5.89354">
        <ele>1686.62</ele>
        <time>2019-08-24T11:22:34.000Z</time>
      </trkpt>
      <trkpt lat="45.05184" lon="5.89381">
        <ele>1688.44</ele>
        <time>2019-08-24T11:22:48.000Z</time>
      </trkpt>
      <trkpt lat="45.05188" lon="5.89407">
        <ele>1688.74</ele>
        <time>2019-08-24T11:23:03.000Z</time>
      </trkpt>
      <trkpt lat="45.05187" lon="5.89434">
        <ele>1685.77</ele>
        <time>2019-08-24T11:23:21.000Z</time>
      </trkpt>
      <trkpt lat="45.05188" lon="5.8946">
        <ele>1685.44</ele>
        <time>2019-08-24T11:23:41.000Z</time>
      </trkpt>
      <trkpt lat="45.05175" lon="5.8948">
        <ele>1685.35</ele>
        <time>2019-08-24T11:23:56.000Z</time>
      </trkpt>
      <trkpt lat="45.05182" lon="5.89507">
        <ele>1685.07</ele>
        <time>2019-08-24T11:24:14.000Z</time>
      </trkpt>
      <trkpt lat="45.05183" lon="5.89534">
        <ele>1683.55</ele>
        <time>2019-08-24T11:24:27.000Z</time>
      </trkpt>
      <trkpt lat="45.05194" lon="5.89554">
        <ele>1680.01</ele>
        <time>2019-08-24T11:24:39.000Z</time>
      </trkpt>
      <trkpt lat="45.05205" lon="5.89577">
        <ele>1681.98</ele>
        <time>2019-08-24T11:24:56.000Z</time>
      </trkpt>
      <trkpt lat="45.05204" lon="5.89603">
        <ele>1678.56</ele>
        <time>2019-08-24T11:25:09.000Z</time>
      </trkpt>
      <trkpt lat="45.05204" lon="5.8963">
        <ele>1675.34</ele>
        <time>2019-08-24T11:25:27.000Z</time>
      </trkpt>
      <trkpt lat="45.05215" lon="5.89651">
        <ele>1674.36</ele>
        <time>2019-08-24T11:25:39.000Z</time>
      </trkpt>
      <trkpt lat="45.05227" lon="5.89673">
        <ele>1669.76</ele>
        <time>2019-08-24T11:25:53.000Z</time>
      </trkpt>
      <trkpt lat="45.05236" lon="5.89695">
        <ele>1670.46</ele>
        <time>2019-08-24T11:26:09.000Z</time>
      </trkpt>
      <trkpt lat="45.05235" lon="5.89722">
        <ele>1669.73</ele>
        <time>2019-08-24T11:26:22.000Z</time>
      </trkpt>
      <trkpt lat="45.05237" lon="5.89747">
        <ele>1670.94</ele>
        <time>2019-08-24T11:26:38.000Z</time>
      </trkpt>
      <trkpt lat="45.05238" lon="5.89775">
        <ele>1666.42</ele>
        <time>2019-08-24T11:26:54.000Z</time>
      </trkpt>
      <trkpt lat="45.05235" lon="5.898">
        <ele>1663.74</ele>
        <time>2019-08-24T11:27:09.000Z</time>
      </trkpt>
      <trkpt lat="45.05229" lon="5.89825">
        <ele>1662.27</ele>
        <time>2019-08-24T11:27:23.000Z</time>
      </trkpt>
      <trkpt lat="45.05247" lon="5.89829">
        <ele>1658.77</ele>
        <time>2019-08-24T11:27:38.000Z</time>
      </trkpt>
    </trkseg>
  </trk>
</gpx>